<?xml version="1.0" encoding="UTF-8" standalone="no" ?>
<gpx xmlns="http://www.topografix.com/GPX/1/1" xmlns:xsi="http://www.w3.org/2001/XMLSchema-instance" xsi:schemaLocation="http://www.topografix.com/GPX/1/1 http://www.topografix.com/GPX/1/1/gpx.xsd" version="1.1" creator="VisuGPX - https://www.visugpx.com">
  <metadata>
    <name>Fleckenstein 4 châteaux</name>
    <desc><![CDATA[Export from GpsPrune]]></desc>
  </metadata>
  <trk>
    <name><![CDATA[GpsPruneTrack]]></name>
    <trkseg>
      <trkpt lat="49.03765" lon="7.77129">
        <ele>231.705</ele>
        <time>2023-05-21T08:39:45Z</time>
      </trkpt>
      <trkpt lat="49.0376" lon="7.7713">
        <ele>233.217</ele>
        <time>2023-05-21T08:40:20Z</time>
      </trkpt>
      <trkpt lat="49.03756" lon="7.77112">
        <ele>231.742</ele>
        <time>2023-05-21T08:40:40Z</time>
      </trkpt>
      <trkpt lat="49.03749" lon="7.77097">
        <ele>231.079</ele>
        <time>2023-05-21T08:40:51Z</time>
      </trkpt>
      <trkpt lat="49.03744" lon="7.77082">
        <ele>230.321</ele>
        <time>2023-05-21T08:41:03Z</time>
      </trkpt>
      <trkpt lat="49.03742" lon="7.77065">
        <ele>229.302</ele>
        <time>2023-05-21T08:41:14Z</time>
      </trkpt>
      <trkpt lat="49.03733" lon="7.77048">
        <ele>229.767</ele>
        <time>2023-05-21T08:41:38Z</time>
      </trkpt>
      <trkpt lat="49.03726" lon="7.77037">
        <ele>230.321</ele>
        <time>2023-05-21T08:41:53Z</time>
      </trkpt>
      <trkpt lat="49.03724" lon="7.77019">
        <ele>228.985</ele>
        <time>2023-05-21T08:42:10Z</time>
      </trkpt>
      <trkpt lat="49.0372" lon="7.76999">
        <ele>228.307</ele>
        <time>2023-05-21T08:42:21Z</time>
      </trkpt>
      <trkpt lat="49.03727" lon="7.76986">
        <ele>225.519</ele>
        <time>2023-05-21T08:42:36Z</time>
      </trkpt>
      <trkpt lat="49.03724" lon="7.76968">
        <ele>224.471</ele>
        <time>2023-05-21T08:42:47Z</time>
      </trkpt>
      <trkpt lat="49.03727" lon="7.76946">
        <ele>222.964</ele>
        <time>2023-05-21T08:42:58Z</time>
      </trkpt>
      <trkpt lat="49.0373" lon="7.76923">
        <ele>221.772</ele>
        <time>2023-05-21T08:43:10Z</time>
      </trkpt>
      <trkpt lat="49.03739" lon="7.7691">
        <ele>219.724</ele>
        <time>2023-05-21T08:43:21Z</time>
      </trkpt>
      <trkpt lat="49.03746" lon="7.76891">
        <ele>217.615</ele>
        <time>2023-05-21T08:43:40Z</time>
      </trkpt>
      <trkpt lat="49.0375" lon="7.76875">
        <ele>215.464</ele>
        <time>2023-05-21T08:43:51Z</time>
      </trkpt>
      <trkpt lat="49.03745" lon="7.76861">
        <ele>214.826</ele>
        <time>2023-05-21T08:44:02Z</time>
      </trkpt>
      <trkpt lat="49.03734" lon="7.76839">
        <ele>213.52</ele>
        <time>2023-05-21T08:44:12Z</time>
      </trkpt>
      <trkpt lat="49.03726" lon="7.76827">
        <ele>212.592</ele>
        <time>2023-05-21T08:44:17Z</time>
      </trkpt>
      <trkpt lat="49.03724" lon="7.76809">
        <ele>209.559</ele>
        <time>2023-05-21T08:44:23Z</time>
      </trkpt>
      <trkpt lat="49.03726" lon="7.76794">
        <ele>207.658</ele>
        <time>2023-05-21T08:44:42Z</time>
      </trkpt>
      <trkpt lat="49.03737" lon="7.76779">
        <ele>206.117</ele>
        <time>2023-05-21T08:44:54Z</time>
      </trkpt>
      <trkpt lat="49.03745" lon="7.76769">
        <ele>205.881</ele>
        <time>2023-05-21T08:45:05Z</time>
      </trkpt>
      <trkpt lat="49.0376" lon="7.76763">
        <ele>206.891</ele>
        <time>2023-05-21T08:45:17Z</time>
      </trkpt>
      <trkpt lat="49.03767" lon="7.76771">
        <ele>207.706</ele>
        <time>2023-05-21T08:45:29Z</time>
      </trkpt>
      <trkpt lat="49.03772" lon="7.7679">
        <ele>208.56</ele>
        <time>2023-05-21T08:45:41Z</time>
      </trkpt>
      <trkpt lat="49.0378" lon="7.76804">
        <ele>209.466</ele>
        <time>2023-05-21T08:45:52Z</time>
      </trkpt>
      <trkpt lat="49.0379" lon="7.76805">
        <ele>211.964</ele>
        <time>2023-05-21T08:46:44Z</time>
      </trkpt>
      <trkpt lat="49.038" lon="7.76819">
        <ele>214.999</ele>
        <time>2023-05-21T08:47:22Z</time>
      </trkpt>
      <trkpt lat="49.03809" lon="7.76829">
        <ele>217.713</ele>
        <time>2023-05-21T08:47:35Z</time>
      </trkpt>
      <trkpt lat="49.03816" lon="7.76845">
        <ele>219.311</ele>
        <time>2023-05-21T08:47:47Z</time>
      </trkpt>
      <trkpt lat="49.03824" lon="7.76861">
        <ele>221.453</ele>
        <time>2023-05-21T08:48:15Z</time>
      </trkpt>
      <trkpt lat="49.03838" lon="7.76871">
        <ele>224.961</ele>
        <time>2023-05-21T08:48:40Z</time>
      </trkpt>
      <trkpt lat="49.03851" lon="7.76869">
        <ele>228.079</ele>
        <time>2023-05-21T08:48:58Z</time>
      </trkpt>
      <trkpt lat="49.03864" lon="7.76863">
        <ele>230.626</ele>
        <time>2023-05-21T08:49:23Z</time>
      </trkpt>
      <trkpt lat="49.03874" lon="7.7686">
        <ele>232.224</ele>
        <time>2023-05-21T08:49:35Z</time>
      </trkpt>
      <trkpt lat="49.03883" lon="7.76876">
        <ele>234.541</ele>
        <time>2023-05-21T08:50:19Z</time>
      </trkpt>
      <trkpt lat="49.0389" lon="7.76863">
        <ele>235.224</ele>
        <time>2023-05-21T08:51:43Z</time>
      </trkpt>
      <trkpt lat="49.03901" lon="7.76857">
        <ele>236.357</ele>
        <time>2023-05-21T08:51:58Z</time>
      </trkpt>
      <trkpt lat="49.03911" lon="7.76855">
        <ele>237.699</ele>
        <time>2023-05-21T08:52:11Z</time>
      </trkpt>
      <trkpt lat="49.03921" lon="7.76848">
        <ele>239.305</ele>
        <time>2023-05-21T08:52:22Z</time>
      </trkpt>
      <trkpt lat="49.03932" lon="7.76847">
        <ele>241.931</ele>
        <time>2023-05-21T08:52:34Z</time>
      </trkpt>
      <trkpt lat="49.03943" lon="7.76843">
        <ele>244.141</ele>
        <time>2023-05-21T08:52:46Z</time>
      </trkpt>
      <trkpt lat="49.03953" lon="7.76834">
        <ele>245.373</ele>
        <time>2023-05-21T08:53:03Z</time>
      </trkpt>
      <trkpt lat="49.03966" lon="7.76825">
        <ele>247.312</ele>
        <time>2023-05-21T08:53:14Z</time>
      </trkpt>
      <trkpt lat="49.03978" lon="7.7681">
        <ele>247.866</ele>
        <time>2023-05-21T08:53:25Z</time>
      </trkpt>
      <trkpt lat="49.03989" lon="7.76806">
        <ele>249.777</ele>
        <time>2023-05-21T08:53:36Z</time>
      </trkpt>
      <trkpt lat="49.04002" lon="7.76805">
        <ele>252.05</ele>
        <time>2023-05-21T08:53:46Z</time>
      </trkpt>
      <trkpt lat="49.0401" lon="7.76817">
        <ele>254.137</ele>
        <time>2023-05-21T08:54:00Z</time>
      </trkpt>
      <trkpt lat="49.04019" lon="7.76836">
        <ele>257.861</ele>
        <time>2023-05-21T08:54:11Z</time>
      </trkpt>
      <trkpt lat="49.04027" lon="7.76853">
        <ele>261.551</ele>
        <time>2023-05-21T08:54:22Z</time>
      </trkpt>
      <trkpt lat="49.04037" lon="7.76861">
        <ele>262.374</ele>
        <time>2023-05-21T08:54:33Z</time>
      </trkpt>
      <trkpt lat="49.04045" lon="7.76869">
        <ele>263.169</ele>
        <time>2023-05-21T08:54:49Z</time>
      </trkpt>
      <trkpt lat="49.04057" lon="7.76886">
        <ele>265.307</ele>
        <time>2023-05-21T08:55:00Z</time>
      </trkpt>
      <trkpt lat="49.04065" lon="7.76898">
        <ele>267.146</ele>
        <time>2023-05-21T08:55:14Z</time>
      </trkpt>
      <trkpt lat="49.04076" lon="7.76907">
        <ele>267.339</ele>
        <time>2023-05-21T08:55:36Z</time>
      </trkpt>
      <trkpt lat="49.04081" lon="7.76921">
        <ele>269.422</ele>
        <time>2023-05-21T08:55:51Z</time>
      </trkpt>
      <trkpt lat="49.04088" lon="7.76938">
        <ele>271.845</ele>
        <time>2023-05-21T08:56:02Z</time>
      </trkpt>
      <trkpt lat="49.04101" lon="7.76952">
        <ele>273.026</ele>
        <time>2023-05-21T08:56:14Z</time>
      </trkpt>
      <trkpt lat="49.04109" lon="7.76963">
        <ele>273.777</ele>
        <time>2023-05-21T08:56:25Z</time>
      </trkpt>
      <trkpt lat="49.04116" lon="7.76976">
        <ele>275.127</ele>
        <time>2023-05-21T08:56:38Z</time>
      </trkpt>
      <trkpt lat="49.04121" lon="7.76991">
        <ele>277.269</ele>
        <time>2023-05-21T08:56:49Z</time>
      </trkpt>
      <trkpt lat="49.04127" lon="7.77006">
        <ele>279.399</ele>
        <time>2023-05-21T08:57:00Z</time>
      </trkpt>
      <trkpt lat="49.04133" lon="7.77018">
        <ele>280.55</ele>
        <time>2023-05-21T08:57:16Z</time>
      </trkpt>
      <trkpt lat="49.04145" lon="7.77036">
        <ele>282.352</ele>
        <time>2023-05-21T08:57:37Z</time>
      </trkpt>
      <trkpt lat="49.04153" lon="7.77049">
        <ele>284.194</ele>
        <time>2023-05-21T08:58:00Z</time>
      </trkpt>
      <trkpt lat="49.04162" lon="7.77057">
        <ele>284.632</ele>
        <time>2023-05-21T08:58:10Z</time>
      </trkpt>
      <trkpt lat="49.04166" lon="7.7707">
        <ele>286.197</ele>
        <time>2023-05-21T08:58:22Z</time>
      </trkpt>
      <trkpt lat="49.04176" lon="7.77084">
        <ele>287.417</ele>
        <time>2023-05-21T08:58:32Z</time>
      </trkpt>
      <trkpt lat="49.0419" lon="7.77099">
        <ele>289.13</ele>
        <time>2023-05-21T08:58:56Z</time>
      </trkpt>
      <trkpt lat="49.04199" lon="7.77118">
        <ele>292.355</ele>
        <time>2023-05-21T08:59:17Z</time>
      </trkpt>
      <trkpt lat="49.04209" lon="7.77125">
        <ele>293.5</ele>
        <time>2023-05-21T08:59:27Z</time>
      </trkpt>
      <trkpt lat="49.04218" lon="7.77141">
        <ele>296.515</ele>
        <time>2023-05-21T08:59:39Z</time>
      </trkpt>
      <trkpt lat="49.0423" lon="7.7715">
        <ele>297.392</ele>
        <time>2023-05-21T08:59:49Z</time>
      </trkpt>
      <trkpt lat="49.04238" lon="7.7716">
        <ele>298.468</ele>
        <time>2023-05-21T09:00:01Z</time>
      </trkpt>
      <trkpt lat="49.04248" lon="7.77167">
        <ele>299.162</ele>
        <time>2023-05-21T09:00:20Z</time>
      </trkpt>
      <trkpt lat="49.04257" lon="7.77179">
        <ele>300.716</ele>
        <time>2023-05-21T09:00:31Z</time>
      </trkpt>
      <trkpt lat="49.04263" lon="7.77193">
        <ele>302.334</ele>
        <time>2023-05-21T09:00:42Z</time>
      </trkpt>
      <trkpt lat="49.04272" lon="7.77205">
        <ele>303.621</ele>
        <time>2023-05-21T09:00:56Z</time>
      </trkpt>
      <trkpt lat="49.0428" lon="7.77215">
        <ele>304.725</ele>
        <time>2023-05-21T09:01:08Z</time>
      </trkpt>
      <trkpt lat="49.0429" lon="7.77229">
        <ele>306.411</ele>
        <time>2023-05-21T09:03:25Z</time>
      </trkpt>
      <trkpt lat="49.04298" lon="7.77237">
        <ele>307.539</ele>
        <time>2023-05-21T09:03:36Z</time>
      </trkpt>
      <trkpt lat="49.04307" lon="7.77245">
        <ele>308.771</ele>
        <time>2023-05-21T09:03:52Z</time>
      </trkpt>
      <trkpt lat="49.04317" lon="7.77259">
        <ele>310.458</ele>
        <time>2023-05-21T09:04:20Z</time>
      </trkpt>
      <trkpt lat="49.04329" lon="7.77267">
        <ele>311.606</ele>
        <time>2023-05-21T09:04:39Z</time>
      </trkpt>
      <trkpt lat="49.04341" lon="7.77272">
        <ele>313.504</ele>
        <time>2023-05-21T09:04:49Z</time>
      </trkpt>
      <trkpt lat="49.04351" lon="7.77281">
        <ele>315.134</ele>
        <time>2023-05-21T09:05:02Z</time>
      </trkpt>
      <trkpt lat="49.04361" lon="7.77284">
        <ele>316.792</ele>
        <time>2023-05-21T09:05:16Z</time>
      </trkpt>
      <trkpt lat="49.04379" lon="7.77283">
        <ele>320.058</ele>
        <time>2023-05-21T09:05:34Z</time>
      </trkpt>
      <trkpt lat="49.04389" lon="7.77286">
        <ele>321.822</ele>
        <time>2023-05-21T09:05:52Z</time>
      </trkpt>
      <trkpt lat="49.044" lon="7.77295">
        <ele>323.863</ele>
        <time>2023-05-21T09:06:05Z</time>
      </trkpt>
      <trkpt lat="49.04411" lon="7.77307">
        <ele>325.714</ele>
        <time>2023-05-21T09:06:26Z</time>
      </trkpt>
      <trkpt lat="49.04424" lon="7.77315">
        <ele>327.897</ele>
        <time>2023-05-21T09:06:37Z</time>
      </trkpt>
      <trkpt lat="49.04422" lon="7.77302">
        <ele>328.212</ele>
        <time>2023-05-21T09:07:47Z</time>
      </trkpt>
      <trkpt lat="49.04413" lon="7.77287">
        <ele>327.555</ele>
        <time>2023-05-21T09:08:01Z</time>
      </trkpt>
      <trkpt lat="49.04406" lon="7.77274">
        <ele>326.662</ele>
        <time>2023-05-21T09:08:13Z</time>
      </trkpt>
      <trkpt lat="49.04398" lon="7.77265">
        <ele>325.444</ele>
        <time>2023-05-21T09:08:28Z</time>
      </trkpt>
      <trkpt lat="49.04398" lon="7.77254">
        <ele>326.483</ele>
        <time>2023-05-21T09:08:56Z</time>
      </trkpt>
      <trkpt lat="49.04409" lon="7.77261">
        <ele>328.568</ele>
        <time>2023-05-21T09:09:06Z</time>
      </trkpt>
      <trkpt lat="49.04419" lon="7.77266">
        <ele>330.435</ele>
        <time>2023-05-21T09:09:17Z</time>
      </trkpt>
      <trkpt lat="49.04425" lon="7.77255">
        <ele>332.992</ele>
        <time>2023-05-21T09:10:34Z</time>
      </trkpt>
      <trkpt lat="49.04428" lon="7.77241">
        <ele>335.052</ele>
        <time>2023-05-21T09:10:52Z</time>
      </trkpt>
      <trkpt lat="49.04429" lon="7.77225">
        <ele>336.949</ele>
        <time>2023-05-21T09:11:03Z</time>
      </trkpt>
      <trkpt lat="49.04427" lon="7.77211">
        <ele>338.06</ele>
        <time>2023-05-21T09:11:19Z</time>
      </trkpt>
      <trkpt lat="49.04428" lon="7.77195">
        <ele>340.169</ele>
        <time>2023-05-21T09:11:27Z</time>
      </trkpt>
      <trkpt lat="49.04432" lon="7.77197">
        <ele>341.846</ele>
        <time>2023-05-21T09:11:43Z</time>
      </trkpt>
      <trkpt lat="49.04441" lon="7.77207">
        <ele>344.51</ele>
        <time>2023-05-21T09:11:54Z</time>
      </trkpt>
      <trkpt lat="49.04446" lon="7.77221">
        <ele>344.269</ele>
        <time>2023-05-21T09:12:09Z</time>
      </trkpt>
      <trkpt lat="49.0445" lon="7.77237">
        <ele>343.622</ele>
        <time>2023-05-21T09:12:22Z</time>
      </trkpt>
      <trkpt lat="49.04459" lon="7.77244">
        <ele>346.357</ele>
        <time>2023-05-21T09:12:41Z</time>
      </trkpt>
      <trkpt lat="49.04466" lon="7.7726">
        <ele>345.415</ele>
        <time>2023-05-21T09:12:51Z</time>
      </trkpt>
      <trkpt lat="49.04478" lon="7.77269">
        <ele>347.038</ele>
        <time>2023-05-21T09:13:07Z</time>
      </trkpt>
      <trkpt lat="49.04491" lon="7.77278">
        <ele>348.233</ele>
        <time>2023-05-21T09:13:40Z</time>
      </trkpt>
      <trkpt lat="49.04502" lon="7.77276">
        <ele>351.529</ele>
        <time>2023-05-21T09:13:54Z</time>
      </trkpt>
      <trkpt lat="49.04512" lon="7.77268">
        <ele>352.238</ele>
        <time>2023-05-21T09:14:29Z</time>
      </trkpt>
      <trkpt lat="49.04521" lon="7.77252">
        <ele>353.839</ele>
        <time>2023-05-21T09:14:40Z</time>
      </trkpt>
      <trkpt lat="49.04524" lon="7.77232">
        <ele>353.656</ele>
        <time>2023-05-21T09:14:53Z</time>
      </trkpt>
      <trkpt lat="49.04523" lon="7.77215">
        <ele>353.688</ele>
        <time>2023-05-21T09:15:05Z</time>
      </trkpt>
      <trkpt lat="49.04523" lon="7.77194">
        <ele>352.623</ele>
        <time>2023-05-21T09:15:16Z</time>
      </trkpt>
      <trkpt lat="49.04519" lon="7.77178">
        <ele>352.061</ele>
        <time>2023-05-21T09:15:27Z</time>
      </trkpt>
      <trkpt lat="49.04536" lon="7.7719">
        <ele>347.395</ele>
        <time>2023-05-21T09:16:49Z</time>
      </trkpt>
      <trkpt lat="49.04539" lon="7.77206">
        <ele>347.644</ele>
        <time>2023-05-21T09:17:00Z</time>
      </trkpt>
      <trkpt lat="49.04537" lon="7.77227">
        <ele>349.431</ele>
        <time>2023-05-21T09:17:10Z</time>
      </trkpt>
      <trkpt lat="49.04533" lon="7.77241">
        <ele>350.698</ele>
        <time>2023-05-21T09:19:51Z</time>
      </trkpt>
      <trkpt lat="49.04534" lon="7.77257">
        <ele>349.329</ele>
        <time>2023-05-21T09:20:04Z</time>
      </trkpt>
      <trkpt lat="49.04538" lon="7.7728">
        <ele>345.496</ele>
        <time>2023-05-21T09:20:16Z</time>
      </trkpt>
      <trkpt lat="49.04546" lon="7.77293">
        <ele>342.979</ele>
        <time>2023-05-21T09:20:27Z</time>
      </trkpt>
      <trkpt lat="49.04554" lon="7.77308">
        <ele>340.757</ele>
        <time>2023-05-21T09:20:39Z</time>
      </trkpt>
      <trkpt lat="49.04556" lon="7.77323">
        <ele>339.057</ele>
        <time>2023-05-21T09:20:45Z</time>
      </trkpt>
      <trkpt lat="49.04566" lon="7.77335">
        <ele>337.059</ele>
        <time>2023-05-21T09:20:56Z</time>
      </trkpt>
      <trkpt lat="49.04582" lon="7.77342">
        <ele>335.745</ele>
        <time>2023-05-21T09:21:07Z</time>
      </trkpt>
      <trkpt lat="49.04593" lon="7.7735">
        <ele>335.598</ele>
        <time>2023-05-21T09:21:18Z</time>
      </trkpt>
      <trkpt lat="49.04602" lon="7.77359">
        <ele>335.705</ele>
        <time>2023-05-21T09:21:29Z</time>
      </trkpt>
      <trkpt lat="49.04612" lon="7.77369">
        <ele>335.397</ele>
        <time>2023-05-21T09:21:41Z</time>
      </trkpt>
      <trkpt lat="49.04625" lon="7.77381">
        <ele>335.156</ele>
        <time>2023-05-21T09:21:58Z</time>
      </trkpt>
      <trkpt lat="49.04634" lon="7.77392">
        <ele>335.516</ele>
        <time>2023-05-21T09:22:09Z</time>
      </trkpt>
      <trkpt lat="49.04643" lon="7.77401">
        <ele>335.536</ele>
        <time>2023-05-21T09:22:20Z</time>
      </trkpt>
      <trkpt lat="49.04651" lon="7.77413">
        <ele>335.449</ele>
        <time>2023-05-21T09:22:33Z</time>
      </trkpt>
      <trkpt lat="49.04663" lon="7.77425">
        <ele>335.489</ele>
        <time>2023-05-21T09:22:43Z</time>
      </trkpt>
      <trkpt lat="49.04673" lon="7.77437">
        <ele>335.638</ele>
        <time>2023-05-21T09:22:56Z</time>
      </trkpt>
      <trkpt lat="49.04684" lon="7.77441">
        <ele>336.328</ele>
        <time>2023-05-21T09:23:08Z</time>
      </trkpt>
      <trkpt lat="49.04694" lon="7.77448">
        <ele>336.815</ele>
        <time>2023-05-21T09:23:18Z</time>
      </trkpt>
      <trkpt lat="49.04706" lon="7.77456">
        <ele>336.743</ele>
        <time>2023-05-21T09:23:30Z</time>
      </trkpt>
      <trkpt lat="49.04709" lon="7.77471">
        <ele>336.545</ele>
        <time>2023-05-21T09:23:41Z</time>
      </trkpt>
      <trkpt lat="49.04707" lon="7.77475">
        <ele>336.397</ele>
        <time>2023-05-21T09:25:08Z</time>
      </trkpt>
      <trkpt lat="49.04703" lon="7.7747">
        <ele>336.349</ele>
        <time>2023-05-21T09:28:38Z</time>
      </trkpt>
      <trkpt lat="49.04693" lon="7.77457">
        <ele>336.422</ele>
        <time>2023-05-21T09:32:28Z</time>
      </trkpt>
      <trkpt lat="49.04686" lon="7.77446">
        <ele>336.278</ele>
        <time>2023-05-21T09:33:32Z</time>
      </trkpt>
      <trkpt lat="49.04678" lon="7.77441">
        <ele>335.889</ele>
        <time>2023-05-21T09:34:24Z</time>
      </trkpt>
      <trkpt lat="49.04664" lon="7.77431">
        <ele>335.321</ele>
        <time>2023-05-21T09:34:35Z</time>
      </trkpt>
      <trkpt lat="49.04655" lon="7.77417">
        <ele>335.586</ele>
        <time>2023-05-21T09:34:46Z</time>
      </trkpt>
      <trkpt lat="49.04645" lon="7.77404">
        <ele>335.466</ele>
        <time>2023-05-21T09:34:57Z</time>
      </trkpt>
      <trkpt lat="49.04636" lon="7.77393">
        <ele>335.625</ele>
        <time>2023-05-21T09:35:07Z</time>
      </trkpt>
      <trkpt lat="49.04621" lon="7.77377">
        <ele>335.111</ele>
        <time>2023-05-21T09:35:19Z</time>
      </trkpt>
      <trkpt lat="49.04608" lon="7.77365">
        <ele>335.574</ele>
        <time>2023-05-21T09:35:31Z</time>
      </trkpt>
      <trkpt lat="49.04599" lon="7.77357">
        <ele>335.616</ele>
        <time>2023-05-21T09:35:37Z</time>
      </trkpt>
      <trkpt lat="49.04586" lon="7.77348">
        <ele>335.512</ele>
        <time>2023-05-21T09:35:49Z</time>
      </trkpt>
      <trkpt lat="49.04576" lon="7.77343">
        <ele>335.886</ele>
        <time>2023-05-21T09:36:00Z</time>
      </trkpt>
      <trkpt lat="49.04566" lon="7.77336">
        <ele>336.962</ele>
        <time>2023-05-21T09:36:21Z</time>
      </trkpt>
      <trkpt lat="49.04554" lon="7.77325">
        <ele>338.862</ele>
        <time>2023-05-21T09:36:33Z</time>
      </trkpt>
      <trkpt lat="49.0455" lon="7.77304">
        <ele>341.439</ele>
        <time>2023-05-21T09:36:48Z</time>
      </trkpt>
      <trkpt lat="49.04541" lon="7.77281">
        <ele>345.178</ele>
        <time>2023-05-21T09:36:59Z</time>
      </trkpt>
      <trkpt lat="49.04536" lon="7.77262">
        <ele>348.39</ele>
        <time>2023-05-21T09:37:10Z</time>
      </trkpt>
      <trkpt lat="49.04536" lon="7.77245">
        <ele>349.901</ele>
        <time>2023-05-21T09:37:21Z</time>
      </trkpt>
      <trkpt lat="49.04538" lon="7.77223">
        <ele>349.016</ele>
        <time>2023-05-21T09:37:33Z</time>
      </trkpt>
      <trkpt lat="49.04538" lon="7.77222">
        <ele>349.05</ele>
        <time>2023-05-21T09:38:23Z</time>
      </trkpt>
      <trkpt lat="49.04537" lon="7.77202">
        <ele>348.273</ele>
        <time>2023-05-21T09:39:02Z</time>
      </trkpt>
      <trkpt lat="49.0454" lon="7.77215">
        <ele>347.996</ele>
        <time>2023-05-21T09:39:54Z</time>
      </trkpt>
      <trkpt lat="49.04539" lon="7.77231">
        <ele>349.016</ele>
        <time>2023-05-21T09:40:15Z</time>
      </trkpt>
      <trkpt lat="49.04536" lon="7.77245">
        <ele>349.936</ele>
        <time>2023-05-21T09:40:28Z</time>
      </trkpt>
      <trkpt lat="49.04539" lon="7.7726">
        <ele>348.078</ele>
        <time>2023-05-21T09:40:42Z</time>
      </trkpt>
      <trkpt lat="49.04545" lon="7.77279">
        <ele>344.9</ele>
        <time>2023-05-21T09:40:54Z</time>
      </trkpt>
      <trkpt lat="49.04553" lon="7.77298">
        <ele>341.909</ele>
        <time>2023-05-21T09:41:05Z</time>
      </trkpt>
      <trkpt lat="49.04561" lon="7.77315">
        <ele>339.379</ele>
        <time>2023-05-21T09:41:16Z</time>
      </trkpt>
      <trkpt lat="49.04565" lon="7.7733">
        <ele>337.577</ele>
        <time>2023-05-21T09:41:27Z</time>
      </trkpt>
      <trkpt lat="49.04577" lon="7.77335">
        <ele>336.402</ele>
        <time>2023-05-21T09:41:38Z</time>
      </trkpt>
      <trkpt lat="49.04583" lon="7.77334">
        <ele>335.971</ele>
        <time>2023-05-21T10:19:31Z</time>
      </trkpt>
      <trkpt lat="49.04589" lon="7.77341">
        <ele>335.78</ele>
        <time>2023-05-21T10:20:15Z</time>
      </trkpt>
      <trkpt lat="49.04618" lon="7.77373">
        <ele>335.232</ele>
        <time>2023-05-21T10:22:01Z</time>
      </trkpt>
      <trkpt lat="49.04631" lon="7.77387">
        <ele>335.39</ele>
        <time>2023-05-21T10:22:13Z</time>
      </trkpt>
      <trkpt lat="49.0464" lon="7.77395">
        <ele>335.755</ele>
        <time>2023-05-21T10:22:24Z</time>
      </trkpt>
      <trkpt lat="49.0465" lon="7.77407">
        <ele>335.466</ele>
        <time>2023-05-21T10:22:37Z</time>
      </trkpt>
      <trkpt lat="49.04661" lon="7.77421">
        <ele>335.597</ele>
        <time>2023-05-21T10:22:49Z</time>
      </trkpt>
      <trkpt lat="49.04671" lon="7.77429">
        <ele>335.795</ele>
        <time>2023-05-21T10:23:00Z</time>
      </trkpt>
      <trkpt lat="49.04677" lon="7.77443">
        <ele>335.786</ele>
        <time>2023-05-21T10:23:12Z</time>
      </trkpt>
      <trkpt lat="49.04687" lon="7.77443">
        <ele>336.514</ele>
        <time>2023-05-21T10:23:25Z</time>
      </trkpt>
      <trkpt lat="49.04696" lon="7.77451">
        <ele>336.792</ele>
        <time>2023-05-21T10:24:23Z</time>
      </trkpt>
      <trkpt lat="49.04706" lon="7.7746">
        <ele>336.684</ele>
        <time>2023-05-21T10:24:34Z</time>
      </trkpt>
      <trkpt lat="49.04713" lon="7.77471">
        <ele>336.696</ele>
        <time>2023-05-21T10:24:45Z</time>
      </trkpt>
      <trkpt lat="49.04721" lon="7.7748">
        <ele>336.93</ele>
        <time>2023-05-21T10:25:03Z</time>
      </trkpt>
      <trkpt lat="49.04723" lon="7.77495">
        <ele>337.11</ele>
        <time>2023-05-21T10:27:24Z</time>
      </trkpt>
      <trkpt lat="49.04729" lon="7.77477">
        <ele>338.268</ele>
        <time>2023-05-21T10:28:49Z</time>
      </trkpt>
      <trkpt lat="49.04736" lon="7.77464">
        <ele>339.142</ele>
        <time>2023-05-21T10:29:00Z</time>
      </trkpt>
      <trkpt lat="49.04745" lon="7.7745">
        <ele>339.774</ele>
        <time>2023-05-21T10:29:12Z</time>
      </trkpt>
      <trkpt lat="49.04756" lon="7.77456">
        <ele>341.853</ele>
        <time>2023-05-21T10:29:23Z</time>
      </trkpt>
      <trkpt lat="49.04768" lon="7.77467">
        <ele>345.294</ele>
        <time>2023-05-21T10:29:53Z</time>
      </trkpt>
      <trkpt lat="49.04781" lon="7.77481">
        <ele>350.679</ele>
        <time>2023-05-21T10:30:30Z</time>
      </trkpt>
      <trkpt lat="49.04791" lon="7.77493">
        <ele>356.134</ele>
        <time>2023-05-21T10:31:12Z</time>
      </trkpt>
      <trkpt lat="49.04795" lon="7.77503">
        <ele>359.459</ele>
        <time>2023-05-21T10:32:40Z</time>
      </trkpt>
      <trkpt lat="49.04807" lon="7.77514">
        <ele>365.196</ele>
        <time>2023-05-21T10:33:47Z</time>
      </trkpt>
      <trkpt lat="49.04817" lon="7.7752">
        <ele>369.156</ele>
        <time>2023-05-21T10:34:19Z</time>
      </trkpt>
      <trkpt lat="49.04821" lon="7.77529">
        <ele>373.424</ele>
        <time>2023-05-21T10:35:06Z</time>
      </trkpt>
      <trkpt lat="49.04833" lon="7.77533">
        <ele>378.649</ele>
        <time>2023-05-21T10:35:19Z</time>
      </trkpt>
      <trkpt lat="49.04842" lon="7.77537">
        <ele>378.748</ele>
        <time>2023-05-21T10:35:41Z</time>
      </trkpt>
      <trkpt lat="49.04853" lon="7.77533">
        <ele>375.637</ele>
        <time>2023-05-21T10:35:52Z</time>
      </trkpt>
      <trkpt lat="49.04863" lon="7.77542">
        <ele>377.172</ele>
        <time>2023-05-21T10:36:03Z</time>
      </trkpt>
      <trkpt lat="49.04875" lon="7.77561">
        <ele>382.483</ele>
        <time>2023-05-21T10:36:14Z</time>
      </trkpt>
      <trkpt lat="49.04871" lon="7.77575">
        <ele>384.639</ele>
        <time>2023-05-21T10:36:27Z</time>
      </trkpt>
      <trkpt lat="49.04857" lon="7.7757">
        <ele>382.045</ele>
        <time>2023-05-21T10:36:47Z</time>
      </trkpt>
      <trkpt lat="49.04839" lon="7.77559">
        <ele>385.35</ele>
        <time>2023-05-21T10:37:57Z</time>
      </trkpt>
      <trkpt lat="49.04828" lon="7.77548">
        <ele>381.565</ele>
        <time>2023-05-21T10:39:59Z</time>
      </trkpt>
      <trkpt lat="49.04833" lon="7.77547">
        <ele>384.157</ele>
        <time>2023-05-21T10:42:18Z</time>
      </trkpt>
      <trkpt lat="49.04846" lon="7.77554">
        <ele>384.74</ele>
        <time>2023-05-21T10:43:00Z</time>
      </trkpt>
      <trkpt lat="49.04856" lon="7.77558">
        <ele>382.901</ele>
        <time>2023-05-21T10:43:14Z</time>
      </trkpt>
      <trkpt lat="49.04869" lon="7.77561">
        <ele>382.366</ele>
        <time>2023-05-21T10:43:31Z</time>
      </trkpt>
      <trkpt lat="49.04879" lon="7.7757">
        <ele>384.81</ele>
        <time>2023-05-21T10:43:43Z</time>
      </trkpt>
      <trkpt lat="49.0489" lon="7.77574">
        <ele>387.77</ele>
        <time>2023-05-21T10:44:16Z</time>
      </trkpt>
      <trkpt lat="49.04897" lon="7.7758">
        <ele>390.231</ele>
        <time>2023-05-21T10:45:31Z</time>
      </trkpt>
      <trkpt lat="49.04907" lon="7.77579">
        <ele>390.731</ele>
        <time>2023-05-21T10:45:48Z</time>
      </trkpt>
      <trkpt lat="49.04918" lon="7.77582">
        <ele>392.463</ele>
        <time>2023-05-21T10:46:01Z</time>
      </trkpt>
      <trkpt lat="49.0493" lon="7.77584">
        <ele>392.416</ele>
        <time>2023-05-21T10:46:31Z</time>
      </trkpt>
      <trkpt lat="49.0494" lon="7.776">
        <ele>399.463</ele>
        <time>2023-05-21T10:47:01Z</time>
      </trkpt>
      <trkpt lat="49.04952" lon="7.77607">
        <ele>400.917</ele>
        <time>2023-05-21T10:47:13Z</time>
      </trkpt>
      <trkpt lat="49.04957" lon="7.77621">
        <ele>401.824</ele>
        <time>2023-05-21T10:47:42Z</time>
      </trkpt>
      <trkpt lat="49.04954" lon="7.77625">
        <ele>401.999</ele>
        <time>2023-05-21T10:47:54Z</time>
      </trkpt>
      <trkpt lat="49.04948" lon="7.77633">
        <ele>400.928</ele>
        <time>2023-05-21T10:48:05Z</time>
      </trkpt>
      <trkpt lat="49.04946" lon="7.77626">
        <ele>401.793</ele>
        <time>2023-05-21T10:50:31Z</time>
      </trkpt>
      <trkpt lat="49.04959" lon="7.77627">
        <ele>402.161</ele>
        <time>2023-05-21T10:52:51Z</time>
      </trkpt>
      <trkpt lat="49.04971" lon="7.77636">
        <ele>405.7</ele>
        <time>2023-05-21T10:53:14Z</time>
      </trkpt>
      <trkpt lat="49.0498" lon="7.77653">
        <ele>406.008</ele>
        <time>2023-05-21T10:54:08Z</time>
      </trkpt>
      <trkpt lat="49.0498" lon="7.77661">
        <ele>406.252</ele>
        <time>2023-05-21T10:55:23Z</time>
      </trkpt>
      <trkpt lat="49.04986" lon="7.77665">
        <ele>407.246</ele>
        <time>2023-05-21T10:57:19Z</time>
      </trkpt>
      <trkpt lat="49.04997" lon="7.77666">
        <ele>409.339</ele>
        <time>2023-05-21T10:58:33Z</time>
      </trkpt>
      <trkpt lat="49.05008" lon="7.77675">
        <ele>409.117</ele>
        <time>2023-05-21T10:58:44Z</time>
      </trkpt>
      <trkpt lat="49.05022" lon="7.77679">
        <ele>409.51</ele>
        <time>2023-05-21T10:59:16Z</time>
      </trkpt>
      <trkpt lat="49.05037" lon="7.77692">
        <ele>411.219</ele>
        <time>2023-05-21T10:59:28Z</time>
      </trkpt>
      <trkpt lat="49.05046" lon="7.777">
        <ele>411.337</ele>
        <time>2023-05-21T10:59:42Z</time>
      </trkpt>
      <trkpt lat="49.05052" lon="7.77718">
        <ele>415.488</ele>
        <time>2023-05-21T11:00:18Z</time>
      </trkpt>
      <trkpt lat="49.0506" lon="7.77726">
        <ele>415.987</ele>
        <time>2023-05-21T11:00:31Z</time>
      </trkpt>
      <trkpt lat="49.0507" lon="7.77734">
        <ele>415.973</ele>
        <time>2023-05-21T11:00:45Z</time>
      </trkpt>
      <trkpt lat="49.05079" lon="7.7774">
        <ele>417.533</ele>
        <time>2023-05-21T11:00:59Z</time>
      </trkpt>
      <trkpt lat="49.05087" lon="7.77748">
        <ele>419.97</ele>
        <time>2023-05-21T11:01:12Z</time>
      </trkpt>
      <trkpt lat="49.05096" lon="7.77754">
        <ele>418.462</ele>
        <time>2023-05-21T11:01:50Z</time>
      </trkpt>
      <trkpt lat="49.05104" lon="7.77764">
        <ele>419.92</ele>
        <time>2023-05-21T11:02:08Z</time>
      </trkpt>
      <trkpt lat="49.05115" lon="7.77776">
        <ele>424.982</ele>
        <time>2023-05-21T11:03:03Z</time>
      </trkpt>
      <trkpt lat="49.05124" lon="7.77784">
        <ele>421.824</ele>
        <time>2023-05-21T11:03:16Z</time>
      </trkpt>
      <trkpt lat="49.05131" lon="7.77796">
        <ele>420.528</ele>
        <time>2023-05-21T11:03:31Z</time>
      </trkpt>
      <trkpt lat="49.05141" lon="7.77807">
        <ele>421.94</ele>
        <time>2023-05-21T11:04:00Z</time>
      </trkpt>
      <trkpt lat="49.05152" lon="7.77818">
        <ele>422.956</ele>
        <time>2023-05-21T11:04:16Z</time>
      </trkpt>
      <trkpt lat="49.05164" lon="7.7783">
        <ele>427.261</ele>
        <time>2023-05-21T11:04:43Z</time>
      </trkpt>
      <trkpt lat="49.05173" lon="7.77834">
        <ele>428.962</ele>
        <time>2023-05-21T11:05:03Z</time>
      </trkpt>
      <trkpt lat="49.05183" lon="7.77841">
        <ele>429.314</ele>
        <time>2023-05-21T11:05:14Z</time>
      </trkpt>
      <trkpt lat="49.05192" lon="7.77849">
        <ele>430.879</ele>
        <time>2023-05-21T11:05:26Z</time>
      </trkpt>
      <trkpt lat="49.05203" lon="7.7786">
        <ele>432.829</ele>
        <time>2023-05-21T11:05:36Z</time>
      </trkpt>
      <trkpt lat="49.05213" lon="7.77867">
        <ele>433.394</ele>
        <time>2023-05-21T11:05:50Z</time>
      </trkpt>
      <trkpt lat="49.05223" lon="7.77874">
        <ele>435.382</ele>
        <time>2023-05-21T11:06:10Z</time>
      </trkpt>
      <trkpt lat="49.05236" lon="7.77884">
        <ele>437.303</ele>
        <time>2023-05-21T11:06:40Z</time>
      </trkpt>
      <trkpt lat="49.05244" lon="7.77895">
        <ele>439.03</ele>
        <time>2023-05-21T11:06:52Z</time>
      </trkpt>
      <trkpt lat="49.05252" lon="7.77903">
        <ele>441.063</ele>
        <time>2023-05-21T11:07:06Z</time>
      </trkpt>
      <trkpt lat="49.05262" lon="7.77905">
        <ele>442.029</ele>
        <time>2023-05-21T11:07:20Z</time>
      </trkpt>
      <trkpt lat="49.05271" lon="7.77915">
        <ele>445.548</ele>
        <time>2023-05-21T11:07:31Z</time>
      </trkpt>
      <trkpt lat="49.05276" lon="7.77927">
        <ele>446.512</ele>
        <time>2023-05-21T11:07:45Z</time>
      </trkpt>
      <trkpt lat="49.05286" lon="7.77942">
        <ele>448.185</ele>
        <time>2023-05-21T11:07:57Z</time>
      </trkpt>
      <trkpt lat="49.05298" lon="7.77952">
        <ele>450.084</ele>
        <time>2023-05-21T11:08:18Z</time>
      </trkpt>
      <trkpt lat="49.05305" lon="7.77963">
        <ele>451.904</ele>
        <time>2023-05-21T11:08:33Z</time>
      </trkpt>
      <trkpt lat="49.05315" lon="7.77968">
        <ele>452.547</ele>
        <time>2023-05-21T11:08:49Z</time>
      </trkpt>
      <trkpt lat="49.05327" lon="7.77975">
        <ele>454.146</ele>
        <time>2023-05-21T11:09:56Z</time>
      </trkpt>
      <trkpt lat="49.05335" lon="7.77982">
        <ele>455.219</ele>
        <time>2023-05-21T11:10:12Z</time>
      </trkpt>
      <trkpt lat="49.05345" lon="7.77989">
        <ele>455.529</ele>
        <time>2023-05-21T11:10:26Z</time>
      </trkpt>
      <trkpt lat="49.05357" lon="7.77998">
        <ele>458.026</ele>
        <time>2023-05-21T11:10:47Z</time>
      </trkpt>
      <trkpt lat="49.05366" lon="7.78007">
        <ele>459.054</ele>
        <time>2023-05-21T11:11:05Z</time>
      </trkpt>
      <trkpt lat="49.05377" lon="7.78019">
        <ele>460.779</ele>
        <time>2023-05-21T11:11:29Z</time>
      </trkpt>
      <trkpt lat="49.05386" lon="7.78027">
        <ele>463.41</ele>
        <time>2023-05-21T11:11:42Z</time>
      </trkpt>
      <trkpt lat="49.05395" lon="7.78039">
        <ele>464.232</ele>
        <time>2023-05-21T11:11:52Z</time>
      </trkpt>
      <trkpt lat="49.05403" lon="7.78048">
        <ele>465.152</ele>
        <time>2023-05-21T11:12:06Z</time>
      </trkpt>
      <trkpt lat="49.05414" lon="7.78054">
        <ele>466.41</ele>
        <time>2023-05-21T11:12:16Z</time>
      </trkpt>
      <trkpt lat="49.05427" lon="7.78063">
        <ele>466.161</ele>
        <time>2023-05-21T11:12:41Z</time>
      </trkpt>
      <trkpt lat="49.05436" lon="7.7808">
        <ele>469.304</ele>
        <time>2023-05-21T11:12:52Z</time>
      </trkpt>
      <trkpt lat="49.05445" lon="7.78086">
        <ele>470.99</ele>
        <time>2023-05-21T11:13:07Z</time>
      </trkpt>
      <trkpt lat="49.05451" lon="7.78099">
        <ele>470.936</ele>
        <time>2023-05-21T11:14:11Z</time>
      </trkpt>
      <trkpt lat="49.05461" lon="7.78111">
        <ele>472.026</ele>
        <time>2023-05-21T11:14:21Z</time>
      </trkpt>
      <trkpt lat="49.0547" lon="7.78126">
        <ele>474.021</ele>
        <time>2023-05-21T11:14:41Z</time>
      </trkpt>
      <trkpt lat="49.05475" lon="7.78141">
        <ele>476.057</ele>
        <time>2023-05-21T11:14:56Z</time>
      </trkpt>
      <trkpt lat="49.05484" lon="7.78146">
        <ele>475.926</ele>
        <time>2023-05-21T11:15:08Z</time>
      </trkpt>
      <trkpt lat="49.05494" lon="7.78153">
        <ele>477.129</ele>
        <time>2023-05-21T11:15:21Z</time>
      </trkpt>
      <trkpt lat="49.05505" lon="7.78158">
        <ele>476.998</ele>
        <time>2023-05-21T11:15:36Z</time>
      </trkpt>
      <trkpt lat="49.05514" lon="7.78171">
        <ele>479.136</ele>
        <time>2023-05-21T11:15:47Z</time>
      </trkpt>
      <trkpt lat="49.05519" lon="7.78184">
        <ele>482.086</ele>
        <time>2023-05-21T11:15:58Z</time>
      </trkpt>
      <trkpt lat="49.05528" lon="7.78193">
        <ele>483.438</ele>
        <time>2023-05-21T11:16:11Z</time>
      </trkpt>
      <trkpt lat="49.05538" lon="7.78207">
        <ele>486.795</ele>
        <time>2023-05-21T11:16:27Z</time>
      </trkpt>
      <trkpt lat="49.05548" lon="7.78217">
        <ele>488.687</ele>
        <time>2023-05-21T11:16:38Z</time>
      </trkpt>
      <trkpt lat="49.05559" lon="7.78212">
        <ele>483.728</ele>
        <time>2023-05-21T11:16:53Z</time>
      </trkpt>
      <trkpt lat="49.05569" lon="7.78218">
        <ele>483.647</ele>
        <time>2023-05-21T11:17:06Z</time>
      </trkpt>
      <trkpt lat="49.05581" lon="7.78228">
        <ele>485.006</ele>
        <time>2023-05-21T11:17:17Z</time>
      </trkpt>
      <trkpt lat="49.05588" lon="7.78242">
        <ele>488.45</ele>
        <time>2023-05-21T11:17:28Z</time>
      </trkpt>
      <trkpt lat="49.05597" lon="7.78254">
        <ele>490.94</ele>
        <time>2023-05-21T11:17:40Z</time>
      </trkpt>
      <trkpt lat="49.05604" lon="7.78267">
        <ele>493.911</ele>
        <time>2023-05-21T11:17:54Z</time>
      </trkpt>
      <trkpt lat="49.05615" lon="7.78277">
        <ele>495.123</ele>
        <time>2023-05-21T11:18:14Z</time>
      </trkpt>
      <trkpt lat="49.05624" lon="7.78287">
        <ele>496.879</ele>
        <time>2023-05-21T11:18:31Z</time>
      </trkpt>
      <trkpt lat="49.05635" lon="7.78296">
        <ele>497.617</ele>
        <time>2023-05-21T11:18:42Z</time>
      </trkpt>
      <trkpt lat="49.05648" lon="7.78301">
        <ele>496.932</ele>
        <time>2023-05-21T11:18:56Z</time>
      </trkpt>
      <trkpt lat="49.05661" lon="7.78304">
        <ele>495.188</ele>
        <time>2023-05-21T11:19:06Z</time>
      </trkpt>
      <trkpt lat="49.05675" lon="7.78311">
        <ele>494.843</ele>
        <time>2023-05-21T11:19:18Z</time>
      </trkpt>
      <trkpt lat="49.05685" lon="7.78319">
        <ele>494.891</ele>
        <time>2023-05-21T11:19:28Z</time>
      </trkpt>
      <trkpt lat="49.05694" lon="7.78326">
        <ele>494.786</ele>
        <time>2023-05-21T11:19:40Z</time>
      </trkpt>
      <trkpt lat="49.05708" lon="7.78332">
        <ele>493.959</ele>
        <time>2023-05-21T11:19:52Z</time>
      </trkpt>
      <trkpt lat="49.05716" lon="7.78346">
        <ele>496.376</ele>
        <time>2023-05-21T11:20:03Z</time>
      </trkpt>
      <trkpt lat="49.05725" lon="7.78356">
        <ele>497.331</ele>
        <time>2023-05-21T11:20:14Z</time>
      </trkpt>
      <trkpt lat="49.05731" lon="7.7837">
        <ele>498.23</ele>
        <time>2023-05-21T11:20:26Z</time>
      </trkpt>
      <trkpt lat="49.05741" lon="7.78381">
        <ele>497.954</ele>
        <time>2023-05-21T11:20:36Z</time>
      </trkpt>
      <trkpt lat="49.05755" lon="7.78379">
        <ele>496.962</ele>
        <time>2023-05-21T11:20:54Z</time>
      </trkpt>
      <trkpt lat="49.05766" lon="7.78385">
        <ele>497.59</ele>
        <time>2023-05-21T11:21:06Z</time>
      </trkpt>
      <trkpt lat="49.0578" lon="7.78387">
        <ele>497.815</ele>
        <time>2023-05-21T11:21:18Z</time>
      </trkpt>
      <trkpt lat="49.05797" lon="7.78389">
        <ele>497.964</ele>
        <time>2023-05-21T11:21:28Z</time>
      </trkpt>
      <trkpt lat="49.05812" lon="7.7839">
        <ele>498.173</ele>
        <time>2023-05-21T11:21:40Z</time>
      </trkpt>
      <trkpt lat="49.05823" lon="7.78384">
        <ele>497.985</ele>
        <time>2023-05-21T11:21:52Z</time>
      </trkpt>
      <trkpt lat="49.05834" lon="7.78388">
        <ele>499.036</ele>
        <time>2023-05-21T11:22:04Z</time>
      </trkpt>
      <trkpt lat="49.05844" lon="7.78386">
        <ele>499.834</ele>
        <time>2023-05-21T11:22:42Z</time>
      </trkpt>
      <trkpt lat="49.05854" lon="7.7839">
        <ele>501.179</ele>
        <time>2023-05-21T11:22:56Z</time>
      </trkpt>
      <trkpt lat="49.05864" lon="7.78393">
        <ele>502.2</ele>
        <time>2023-05-21T11:23:09Z</time>
      </trkpt>
      <trkpt lat="49.05879" lon="7.78399">
        <ele>504.304</ele>
        <time>2023-05-21T11:23:33Z</time>
      </trkpt>
      <trkpt lat="49.05894" lon="7.78407">
        <ele>507.671</ele>
        <time>2023-05-21T11:24:09Z</time>
      </trkpt>
      <trkpt lat="49.05908" lon="7.78412">
        <ele>511.742</ele>
        <time>2023-05-21T11:24:34Z</time>
      </trkpt>
      <trkpt lat="49.05922" lon="7.78418">
        <ele>516.088</ele>
        <time>2023-05-21T11:24:46Z</time>
      </trkpt>
      <trkpt lat="49.05934" lon="7.78431">
        <ele>516.617</ele>
        <time>2023-05-21T11:25:07Z</time>
      </trkpt>
      <trkpt lat="49.05947" lon="7.78443">
        <ele>519.275</ele>
        <time>2023-05-21T11:25:33Z</time>
      </trkpt>
      <trkpt lat="49.05956" lon="7.7845">
        <ele>521.704</ele>
        <time>2023-05-21T11:25:39Z</time>
      </trkpt>
      <trkpt lat="49.05966" lon="7.78455">
        <ele>524.957</ele>
        <time>2023-05-21T11:25:50Z</time>
      </trkpt>
      <trkpt lat="49.05978" lon="7.78468">
        <ele>527.238</ele>
        <time>2023-05-21T11:26:08Z</time>
      </trkpt>
      <trkpt lat="49.05985" lon="7.78481">
        <ele>527.416</ele>
        <time>2023-05-21T11:26:21Z</time>
      </trkpt>
      <trkpt lat="49.05995" lon="7.78491">
        <ele>530.153</ele>
        <time>2023-05-21T11:26:32Z</time>
      </trkpt>
      <trkpt lat="49.06004" lon="7.78507">
        <ele>531.328</ele>
        <time>2023-05-21T11:26:54Z</time>
      </trkpt>
      <trkpt lat="49.06013" lon="7.78515">
        <ele>533.472</ele>
        <time>2023-05-21T11:27:10Z</time>
      </trkpt>
      <trkpt lat="49.06022" lon="7.78528">
        <ele>535.751</ele>
        <time>2023-05-21T11:27:22Z</time>
      </trkpt>
      <trkpt lat="49.06035" lon="7.78539">
        <ele>538.552</ele>
        <time>2023-05-21T11:27:33Z</time>
      </trkpt>
      <trkpt lat="49.0604" lon="7.78553">
        <ele>538.646</ele>
        <time>2023-05-21T11:27:45Z</time>
      </trkpt>
      <trkpt lat="49.06049" lon="7.78572">
        <ele>540.361</ele>
        <time>2023-05-21T11:28:04Z</time>
      </trkpt>
      <trkpt lat="49.06056" lon="7.78587">
        <ele>542.317</ele>
        <time>2023-05-21T11:28:15Z</time>
      </trkpt>
      <trkpt lat="49.06064" lon="7.78597">
        <ele>541.776</ele>
        <time>2023-05-21T11:28:26Z</time>
      </trkpt>
      <trkpt lat="49.06075" lon="7.78611">
        <ele>542.9</ele>
        <time>2023-05-21T11:28:56Z</time>
      </trkpt>
      <trkpt lat="49.06084" lon="7.7862">
        <ele>544.365</ele>
        <time>2023-05-21T11:29:09Z</time>
      </trkpt>
      <trkpt lat="49.06093" lon="7.78634">
        <ele>544.604</ele>
        <time>2023-05-21T11:29:21Z</time>
      </trkpt>
      <trkpt lat="49.06103" lon="7.78641">
        <ele>545.87</ele>
        <time>2023-05-21T11:29:34Z</time>
      </trkpt>
      <trkpt lat="49.06116" lon="7.7864">
        <ele>546.653</ele>
        <time>2023-05-21T11:30:21Z</time>
      </trkpt>
      <trkpt lat="49.06125" lon="7.78647">
        <ele>546.822</ele>
        <time>2023-05-21T11:30:36Z</time>
      </trkpt>
      <trkpt lat="49.06134" lon="7.78662">
        <ele>549.506</ele>
        <time>2023-05-21T11:30:48Z</time>
      </trkpt>
      <trkpt lat="49.06141" lon="7.78673">
        <ele>551.163</ele>
        <time>2023-05-21T11:30:59Z</time>
      </trkpt>
      <trkpt lat="49.06138" lon="7.78679">
        <ele>553.17</ele>
        <time>2023-05-21T11:31:40Z</time>
      </trkpt>
      <trkpt lat="49.06129" lon="7.78682">
        <ele>552.038</ele>
        <time>2023-05-21T11:32:26Z</time>
      </trkpt>
      <trkpt lat="49.06122" lon="7.7868">
        <ele>550.708</ele>
        <time>2023-05-21T11:32:45Z</time>
      </trkpt>
      <trkpt lat="49.06131" lon="7.78691">
        <ele>553.534</ele>
        <time>2023-05-21T11:33:18Z</time>
      </trkpt>
      <trkpt lat="49.06135" lon="7.78701">
        <ele>554.648</ele>
        <time>2023-05-21T11:34:10Z</time>
      </trkpt>
      <trkpt lat="49.0613" lon="7.78698">
        <ele>553.381</ele>
        <time>2023-05-21T11:36:33Z</time>
      </trkpt>
      <trkpt lat="49.06139" lon="7.78711">
        <ele>555.267</ele>
        <time>2023-05-21T11:43:23Z</time>
      </trkpt>
      <trkpt lat="49.06149" lon="7.7872">
        <ele>553.539</ele>
        <time>2023-05-21T11:43:39Z</time>
      </trkpt>
      <trkpt lat="49.06155" lon="7.78732">
        <ele>551.516</ele>
        <time>2023-05-21T11:44:38Z</time>
      </trkpt>
      <trkpt lat="49.06162" lon="7.78744">
        <ele>550.607</ele>
        <time>2023-05-21T11:45:05Z</time>
      </trkpt>
      <trkpt lat="49.06151" lon="7.78732">
        <ele>551.741</ele>
        <time>2023-05-21T11:48:05Z</time>
      </trkpt>
      <trkpt lat="49.06143" lon="7.7872">
        <ele>554.483</ele>
        <time>2023-05-21T11:48:36Z</time>
      </trkpt>
      <trkpt lat="49.06119" lon="7.78692">
        <ele>550.883</ele>
        <time>2023-05-21T11:53:08Z</time>
      </trkpt>
      <trkpt lat="49.06142" lon="7.7868">
        <ele>552.381</ele>
        <time>2023-05-21T11:54:42Z</time>
      </trkpt>
      <trkpt lat="49.06136" lon="7.78668">
        <ele>550.956</ele>
        <time>2023-05-21T11:54:54Z</time>
      </trkpt>
      <trkpt lat="49.06128" lon="7.78656">
        <ele>548.203</ele>
        <time>2023-05-21T11:55:08Z</time>
      </trkpt>
      <trkpt lat="49.06117" lon="7.78647">
        <ele>547.22</ele>
        <time>2023-05-21T11:55:19Z</time>
      </trkpt>
      <trkpt lat="49.06107" lon="7.78645">
        <ele>546.617</ele>
        <time>2023-05-21T11:56:47Z</time>
      </trkpt>
      <trkpt lat="49.06092" lon="7.78637">
        <ele>544.314</ele>
        <time>2023-05-21T11:57:59Z</time>
      </trkpt>
      <trkpt lat="49.06083" lon="7.7863">
        <ele>543.601</ele>
        <time>2023-05-21T11:58:11Z</time>
      </trkpt>
      <trkpt lat="49.06075" lon="7.78624">
        <ele>541.133</ele>
        <time>2023-05-21T11:58:24Z</time>
      </trkpt>
      <trkpt lat="49.0606" lon="7.78616">
        <ele>537.943</ele>
        <time>2023-05-21T11:58:45Z</time>
      </trkpt>
      <trkpt lat="49.06054" lon="7.78599">
        <ele>539.126</ele>
        <time>2023-05-21T11:58:57Z</time>
      </trkpt>
      <trkpt lat="49.06043" lon="7.78587">
        <ele>535.657</ele>
        <time>2023-05-21T11:59:07Z</time>
      </trkpt>
      <trkpt lat="49.06033" lon="7.78575">
        <ele>532.325</ele>
        <time>2023-05-21T11:59:19Z</time>
      </trkpt>
      <trkpt lat="49.06028" lon="7.78562">
        <ele>532.532</ele>
        <time>2023-05-21T11:59:33Z</time>
      </trkpt>
      <trkpt lat="49.06013" lon="7.78549">
        <ele>527.113</ele>
        <time>2023-05-21T11:59:50Z</time>
      </trkpt>
      <trkpt lat="49.06005" lon="7.78539">
        <ele>524.773</ele>
        <time>2023-05-21T12:00:08Z</time>
      </trkpt>
      <trkpt lat="49.05997" lon="7.78526">
        <ele>523.463</ele>
        <time>2023-05-21T12:00:20Z</time>
      </trkpt>
      <trkpt lat="49.05987" lon="7.78517">
        <ele>520.211</ele>
        <time>2023-05-21T12:00:33Z</time>
      </trkpt>
      <trkpt lat="49.05981" lon="7.78505">
        <ele>520.013</ele>
        <time>2023-05-21T12:00:46Z</time>
      </trkpt>
      <trkpt lat="49.05979" lon="7.78487">
        <ele>523.177</ele>
        <time>2023-05-21T12:01:27Z</time>
      </trkpt>
      <trkpt lat="49.05961" lon="7.78476">
        <ele>518.049</ele>
        <time>2023-05-21T12:01:46Z</time>
      </trkpt>
      <trkpt lat="49.0595" lon="7.78462">
        <ele>516.289</ele>
        <time>2023-05-21T12:01:57Z</time>
      </trkpt>
      <trkpt lat="49.05944" lon="7.78449">
        <ele>516.81</ele>
        <time>2023-05-21T12:02:10Z</time>
      </trkpt>
      <trkpt lat="49.05936" lon="7.78439">
        <ele>515.957</ele>
        <time>2023-05-21T12:02:22Z</time>
      </trkpt>
      <trkpt lat="49.05922" lon="7.78433">
        <ele>512.607</ele>
        <time>2023-05-21T12:02:41Z</time>
      </trkpt>
      <trkpt lat="49.05912" lon="7.78423">
        <ele>512.153</ele>
        <time>2023-05-21T12:02:52Z</time>
      </trkpt>
      <trkpt lat="49.05903" lon="7.78412">
        <ele>510.512</ele>
        <time>2023-05-21T12:03:20Z</time>
      </trkpt>
      <trkpt lat="49.0589" lon="7.78408">
        <ele>506.812</ele>
        <time>2023-05-21T12:03:32Z</time>
      </trkpt>
      <trkpt lat="49.0588" lon="7.78401">
        <ele>504.472</ele>
        <time>2023-05-21T12:03:42Z</time>
      </trkpt>
      <trkpt lat="49.05868" lon="7.78399">
        <ele>502.637</ele>
        <time>2023-05-21T12:03:56Z</time>
      </trkpt>
      <trkpt lat="49.05846" lon="7.784">
        <ele>499.819</ele>
        <time>2023-05-21T12:04:20Z</time>
      </trkpt>
      <trkpt lat="49.05836" lon="7.784">
        <ele>498.554</ele>
        <time>2023-05-21T12:04:26Z</time>
      </trkpt>
      <trkpt lat="49.05823" lon="7.78397">
        <ele>497.899</ele>
        <time>2023-05-21T12:04:37Z</time>
      </trkpt>
      <trkpt lat="49.05811" lon="7.78398">
        <ele>497.275</ele>
        <time>2023-05-21T12:04:47Z</time>
      </trkpt>
      <trkpt lat="49.058" lon="7.78399">
        <ele>496.829</ele>
        <time>2023-05-21T12:04:53Z</time>
      </trkpt>
      <trkpt lat="49.0579" lon="7.78399">
        <ele>496.555</ele>
        <time>2023-05-21T12:05:05Z</time>
      </trkpt>
      <trkpt lat="49.05779" lon="7.78397">
        <ele>496.519</ele>
        <time>2023-05-21T12:05:19Z</time>
      </trkpt>
      <trkpt lat="49.05767" lon="7.78392">
        <ele>497.386</ele>
        <time>2023-05-21T12:05:29Z</time>
      </trkpt>
      <trkpt lat="49.05757" lon="7.78385">
        <ele>497.613</ele>
        <time>2023-05-21T12:05:41Z</time>
      </trkpt>
      <trkpt lat="49.05744" lon="7.78386">
        <ele>498.225</ele>
        <time>2023-05-21T12:05:53Z</time>
      </trkpt>
      <trkpt lat="49.05729" lon="7.78389">
        <ele>499.477</ele>
        <time>2023-05-21T12:06:25Z</time>
      </trkpt>
      <trkpt lat="49.05716" lon="7.78385">
        <ele>501.099</ele>
        <time>2023-05-21T12:06:36Z</time>
      </trkpt>
      <trkpt lat="49.05707" lon="7.7838">
        <ele>502.863</ele>
        <time>2023-05-21T12:06:48Z</time>
      </trkpt>
      <trkpt lat="49.05698" lon="7.78373">
        <ele>504.273</ele>
        <time>2023-05-21T12:07:05Z</time>
      </trkpt>
      <trkpt lat="49.05686" lon="7.78362">
        <ele>506.567</ele>
        <time>2023-05-21T12:07:30Z</time>
      </trkpt>
      <trkpt lat="49.05675" lon="7.78357">
        <ele>508.659</ele>
        <time>2023-05-21T12:07:45Z</time>
      </trkpt>
      <trkpt lat="49.0566" lon="7.78353">
        <ele>511.657</ele>
        <time>2023-05-21T12:08:26Z</time>
      </trkpt>
      <trkpt lat="49.0565" lon="7.78351">
        <ele>513.438</ele>
        <time>2023-05-21T12:08:42Z</time>
      </trkpt>
      <trkpt lat="49.05639" lon="7.78349">
        <ele>515.602</ele>
        <time>2023-05-21T12:08:54Z</time>
      </trkpt>
      <trkpt lat="49.05628" lon="7.78348">
        <ele>517.368</ele>
        <time>2023-05-21T12:09:05Z</time>
      </trkpt>
      <trkpt lat="49.05617" lon="7.7835">
        <ele>520.181</ele>
        <time>2023-05-21T12:09:21Z</time>
      </trkpt>
      <trkpt lat="49.05607" lon="7.7835">
        <ele>522.8</ele>
        <time>2023-05-21T12:09:41Z</time>
      </trkpt>
      <trkpt lat="49.05594" lon="7.78346">
        <ele>525.58</ele>
        <time>2023-05-21T12:09:54Z</time>
      </trkpt>
      <trkpt lat="49.05582" lon="7.78343">
        <ele>528.536</ele>
        <time>2023-05-21T12:10:05Z</time>
      </trkpt>
      <trkpt lat="49.05567" lon="7.78338">
        <ele>530.98</ele>
        <time>2023-05-21T12:10:23Z</time>
      </trkpt>
      <trkpt lat="49.05552" lon="7.78338">
        <ele>534.31</ele>
        <time>2023-05-21T12:10:43Z</time>
      </trkpt>
      <trkpt lat="49.05541" lon="7.78336">
        <ele>534.272</ele>
        <time>2023-05-21T12:10:55Z</time>
      </trkpt>
      <trkpt lat="49.05531" lon="7.7834">
        <ele>535.593</ele>
        <time>2023-05-21T12:11:06Z</time>
      </trkpt>
      <trkpt lat="49.05523" lon="7.78352">
        <ele>537.737</ele>
        <time>2023-05-21T12:11:18Z</time>
      </trkpt>
      <trkpt lat="49.05516" lon="7.78364">
        <ele>538.958</ele>
        <time>2023-05-21T12:11:30Z</time>
      </trkpt>
      <trkpt lat="49.05511" lon="7.78378">
        <ele>540.326</ele>
        <time>2023-05-21T12:11:41Z</time>
      </trkpt>
      <trkpt lat="49.05511" lon="7.78387">
        <ele>541.734</ele>
        <time>2023-05-21T12:12:35Z</time>
      </trkpt>
      <trkpt lat="49.05516" lon="7.78372">
        <ele>540.398</ele>
        <time>2023-05-21T12:12:52Z</time>
      </trkpt>
      <trkpt lat="49.05525" lon="7.78367">
        <ele>541.54</ele>
        <time>2023-05-21T12:13:08Z</time>
      </trkpt>
      <trkpt lat="49.05536" lon="7.78367">
        <ele>542.423</ele>
        <time>2023-05-21T12:13:25Z</time>
      </trkpt>
      <trkpt lat="49.05541" lon="7.78378">
        <ele>545.504</ele>
        <time>2023-05-21T12:13:46Z</time>
      </trkpt>
      <trkpt lat="49.05533" lon="7.78388">
        <ele>547.277</ele>
        <time>2023-05-21T12:14:12Z</time>
      </trkpt>
      <trkpt lat="49.05541" lon="7.78396">
        <ele>546.79</ele>
        <time>2023-05-21T12:15:27Z</time>
      </trkpt>
      <trkpt lat="49.05542" lon="7.78396">
        <ele>546.722</ele>
        <time>2023-05-21T12:17:31Z</time>
      </trkpt>
      <trkpt lat="49.05539" lon="7.78391">
        <ele>547.682</ele>
        <time>2023-05-21T12:19:28Z</time>
      </trkpt>
      <trkpt lat="49.05537" lon="7.78395">
        <ele>546.521</ele>
        <time>2023-05-21T12:24:22Z</time>
      </trkpt>
      <trkpt lat="49.0553" lon="7.78396">
        <ele>545.917</ele>
        <time>2023-05-21T12:25:28Z</time>
      </trkpt>
      <trkpt lat="49.05534" lon="7.78383">
        <ele>546.191</ele>
        <time>2023-05-21T12:26:01Z</time>
      </trkpt>
      <trkpt lat="49.05547" lon="7.78377">
        <ele>545.541</ele>
        <time>2023-05-21T12:26:13Z</time>
      </trkpt>
      <trkpt lat="49.0554" lon="7.78368">
        <ele>542.756</ele>
        <time>2023-05-21T12:26:33Z</time>
      </trkpt>
      <trkpt lat="49.05531" lon="7.7837">
        <ele>543.088</ele>
        <time>2023-05-21T12:26:46Z</time>
      </trkpt>
      <trkpt lat="49.05519" lon="7.78375">
        <ele>541.87</ele>
        <time>2023-05-21T12:26:59Z</time>
      </trkpt>
      <trkpt lat="49.05508" lon="7.7839">
        <ele>541.34</ele>
        <time>2023-05-21T12:27:19Z</time>
      </trkpt>
      <trkpt lat="49.05505" lon="7.78404">
        <ele>539.987</ele>
        <time>2023-05-21T12:28:43Z</time>
      </trkpt>
      <trkpt lat="49.05502" lon="7.78419">
        <ele>539.142</ele>
        <time>2023-05-21T12:29:03Z</time>
      </trkpt>
      <trkpt lat="49.05496" lon="7.78439">
        <ele>537.262</ele>
        <time>2023-05-21T12:29:22Z</time>
      </trkpt>
      <trkpt lat="49.05494" lon="7.78461">
        <ele>534.671</ele>
        <time>2023-05-21T12:30:14Z</time>
      </trkpt>
      <trkpt lat="49.05485" lon="7.78468">
        <ele>532.687</ele>
        <time>2023-05-21T12:30:28Z</time>
      </trkpt>
      <trkpt lat="49.05478" lon="7.78483">
        <ele>530.421</ele>
        <time>2023-05-21T12:30:40Z</time>
      </trkpt>
      <trkpt lat="49.05469" lon="7.78508">
        <ele>527.431</ele>
        <time>2023-05-21T12:30:51Z</time>
      </trkpt>
      <trkpt lat="49.05461" lon="7.7852">
        <ele>526.024</ele>
        <time>2023-05-21T12:31:04Z</time>
      </trkpt>
      <trkpt lat="49.05448" lon="7.78524">
        <ele>526.388</ele>
        <time>2023-05-21T12:31:15Z</time>
      </trkpt>
      <trkpt lat="49.05435" lon="7.78535">
        <ele>525.545</ele>
        <time>2023-05-21T12:31:47Z</time>
      </trkpt>
      <trkpt lat="49.05424" lon="7.78545">
        <ele>525.383</ele>
        <time>2023-05-21T12:31:59Z</time>
      </trkpt>
      <trkpt lat="49.0541" lon="7.7856">
        <ele>525.44</ele>
        <time>2023-05-21T12:32:17Z</time>
      </trkpt>
      <trkpt lat="49.05396" lon="7.78574">
        <ele>525.112</ele>
        <time>2023-05-21T12:32:28Z</time>
      </trkpt>
      <trkpt lat="49.05387" lon="7.78581">
        <ele>525.728</ele>
        <time>2023-05-21T12:32:39Z</time>
      </trkpt>
      <trkpt lat="49.05374" lon="7.78589">
        <ele>524.388</ele>
        <time>2023-05-21T12:32:52Z</time>
      </trkpt>
      <trkpt lat="49.05364" lon="7.78606">
        <ele>526.805</ele>
        <time>2023-05-21T12:33:43Z</time>
      </trkpt>
      <trkpt lat="49.05356" lon="7.78625">
        <ele>527.899</ele>
        <time>2023-05-21T12:34:14Z</time>
      </trkpt>
      <trkpt lat="49.05366" lon="7.78628">
        <ele>528.517</ele>
        <time>2023-05-21T12:34:59Z</time>
      </trkpt>
      <trkpt lat="49.05357" lon="7.78628">
        <ele>528.45</ele>
        <time>2023-05-21T12:35:40Z</time>
      </trkpt>
      <trkpt lat="49.05361" lon="7.78612">
        <ele>527.94</ele>
        <time>2023-05-21T12:36:24Z</time>
      </trkpt>
      <trkpt lat="49.0535" lon="7.78617">
        <ele>525.684</ele>
        <time>2023-05-21T12:37:33Z</time>
      </trkpt>
      <trkpt lat="49.05338" lon="7.78619">
        <ele>522.946</ele>
        <time>2023-05-21T12:37:48Z</time>
      </trkpt>
      <trkpt lat="49.05328" lon="7.78624">
        <ele>521.271</ele>
        <time>2023-05-21T12:38:02Z</time>
      </trkpt>
      <trkpt lat="49.05319" lon="7.78626">
        <ele>518.25</ele>
        <time>2023-05-21T12:38:42Z</time>
      </trkpt>
      <trkpt lat="49.05328" lon="7.78619">
        <ele>520.038</ele>
        <time>2023-05-21T12:38:54Z</time>
      </trkpt>
      <trkpt lat="49.05335" lon="7.78603">
        <ele>517.916</ele>
        <time>2023-05-21T12:39:05Z</time>
      </trkpt>
      <trkpt lat="49.05338" lon="7.78578">
        <ele>511.65</ele>
        <time>2023-05-21T12:39:25Z</time>
      </trkpt>
      <trkpt lat="49.05337" lon="7.78562">
        <ele>507.174</ele>
        <time>2023-05-21T12:39:41Z</time>
      </trkpt>
      <trkpt lat="49.05348" lon="7.78554">
        <ele>507.595</ele>
        <time>2023-05-21T12:39:58Z</time>
      </trkpt>
      <trkpt lat="49.05354" lon="7.7854">
        <ele>505.82</ele>
        <time>2023-05-21T12:40:11Z</time>
      </trkpt>
      <trkpt lat="49.05359" lon="7.78523">
        <ele>502.811</ele>
        <time>2023-05-21T12:40:24Z</time>
      </trkpt>
      <trkpt lat="49.05369" lon="7.78512">
        <ele>501.618</ele>
        <time>2023-05-21T12:40:36Z</time>
      </trkpt>
      <trkpt lat="49.05376" lon="7.78498">
        <ele>499.528</ele>
        <time>2023-05-21T12:40:47Z</time>
      </trkpt>
      <trkpt lat="49.05385" lon="7.7849">
        <ele>501.437</ele>
        <time>2023-05-21T12:40:59Z</time>
      </trkpt>
      <trkpt lat="49.05393" lon="7.78473">
        <ele>499.585</ele>
        <time>2023-05-21T12:41:11Z</time>
      </trkpt>
      <trkpt lat="49.05399" lon="7.78458">
        <ele>498.263</ele>
        <time>2023-05-21T12:41:21Z</time>
      </trkpt>
      <trkpt lat="49.05407" lon="7.78446">
        <ele>499.359</ele>
        <time>2023-05-21T12:41:35Z</time>
      </trkpt>
      <trkpt lat="49.05411" lon="7.78427">
        <ele>498.241</ele>
        <time>2023-05-21T12:41:47Z</time>
      </trkpt>
      <trkpt lat="49.05409" lon="7.7841">
        <ele>494.547</ele>
        <time>2023-05-21T12:41:59Z</time>
      </trkpt>
      <trkpt lat="49.05413" lon="7.78398">
        <ele>495.725</ele>
        <time>2023-05-21T12:42:13Z</time>
      </trkpt>
      <trkpt lat="49.05412" lon="7.78374">
        <ele>490.965</ele>
        <time>2023-05-21T12:42:37Z</time>
      </trkpt>
      <trkpt lat="49.0542" lon="7.78355">
        <ele>491.541</ele>
        <time>2023-05-21T12:42:49Z</time>
      </trkpt>
      <trkpt lat="49.05428" lon="7.78341">
        <ele>493.123</ele>
        <time>2023-05-21T12:43:00Z</time>
      </trkpt>
      <trkpt lat="49.05432" lon="7.78322">
        <ele>491.614</ele>
        <time>2023-05-21T12:43:17Z</time>
      </trkpt>
      <trkpt lat="49.05434" lon="7.78304">
        <ele>488.745</ele>
        <time>2023-05-21T12:43:41Z</time>
      </trkpt>
      <trkpt lat="49.05438" lon="7.7829">
        <ele>488.074</ele>
        <time>2023-05-21T12:43:58Z</time>
      </trkpt>
      <trkpt lat="49.05441" lon="7.78266">
        <ele>484.299</ele>
        <time>2023-05-21T12:44:19Z</time>
      </trkpt>
      <trkpt lat="49.05448" lon="7.78241">
        <ele>482.182</ele>
        <time>2023-05-21T12:44:30Z</time>
      </trkpt>
      <trkpt lat="49.05455" lon="7.78225">
        <ele>482.64</ele>
        <time>2023-05-21T12:44:50Z</time>
      </trkpt>
      <trkpt lat="49.05458" lon="7.7821">
        <ele>481.878</ele>
        <time>2023-05-21T12:45:02Z</time>
      </trkpt>
      <trkpt lat="49.05459" lon="7.7819">
        <ele>479.764</ele>
        <time>2023-05-21T12:45:13Z</time>
      </trkpt>
      <trkpt lat="49.05458" lon="7.78175">
        <ele>477.097</ele>
        <time>2023-05-21T12:45:25Z</time>
      </trkpt>
      <trkpt lat="49.05465" lon="7.78153">
        <ele>476.694</ele>
        <time>2023-05-21T12:45:36Z</time>
      </trkpt>
      <trkpt lat="49.05459" lon="7.78132">
        <ele>473.24</ele>
        <time>2023-05-21T12:45:47Z</time>
      </trkpt>
      <trkpt lat="49.05454" lon="7.78117">
        <ele>472.178</ele>
        <time>2023-05-21T12:46:04Z</time>
      </trkpt>
      <trkpt lat="49.05452" lon="7.7813">
        <ele>472.275</ele>
        <time>2023-05-21T12:46:45Z</time>
      </trkpt>
      <trkpt lat="49.05451" lon="7.78146">
        <ele>472.445</ele>
        <time>2023-05-21T12:46:58Z</time>
      </trkpt>
      <trkpt lat="49.05451" lon="7.78164">
        <ele>473.246</ele>
        <time>2023-05-21T12:47:10Z</time>
      </trkpt>
      <trkpt lat="49.05446" lon="7.78185">
        <ele>473.446</ele>
        <time>2023-05-21T12:47:22Z</time>
      </trkpt>
      <trkpt lat="49.05444" lon="7.78204">
        <ele>474.669</ele>
        <time>2023-05-21T12:47:34Z</time>
      </trkpt>
      <trkpt lat="49.05432" lon="7.78219">
        <ele>468.938</ele>
        <time>2023-05-21T12:47:47Z</time>
      </trkpt>
      <trkpt lat="49.05424" lon="7.78236">
        <ele>467.028</ele>
        <time>2023-05-21T12:47:59Z</time>
      </trkpt>
      <trkpt lat="49.05418" lon="7.78249">
        <ele>466.512</ele>
        <time>2023-05-21T12:48:11Z</time>
      </trkpt>
      <trkpt lat="49.05414" lon="7.78265">
        <ele>467.879</ele>
        <time>2023-05-21T12:48:22Z</time>
      </trkpt>
      <trkpt lat="49.05406" lon="7.78276">
        <ele>465.18</ele>
        <time>2023-05-21T12:48:33Z</time>
      </trkpt>
      <trkpt lat="49.05398" lon="7.7829">
        <ele>463.233</ele>
        <time>2023-05-21T12:48:44Z</time>
      </trkpt>
      <trkpt lat="49.0539" lon="7.78303">
        <ele>459.992</ele>
        <time>2023-05-21T12:49:26Z</time>
      </trkpt>
      <trkpt lat="49.05391" lon="7.78314">
        <ele>463.922</ele>
        <time>2023-05-21T12:49:36Z</time>
      </trkpt>
      <trkpt lat="49.05385" lon="7.78325">
        <ele>462.091</ele>
        <time>2023-05-21T12:49:48Z</time>
      </trkpt>
      <trkpt lat="49.0537" lon="7.78337">
        <ele>455.416</ele>
        <time>2023-05-21T12:49:58Z</time>
      </trkpt>
      <trkpt lat="49.05363" lon="7.78351">
        <ele>453.863</ele>
        <time>2023-05-21T12:50:09Z</time>
      </trkpt>
      <trkpt lat="49.05356" lon="7.78363">
        <ele>452.184</ele>
        <time>2023-05-21T12:50:15Z</time>
      </trkpt>
      <trkpt lat="49.05349" lon="7.78381">
        <ele>453.043</ele>
        <time>2023-05-21T12:50:26Z</time>
      </trkpt>
      <trkpt lat="49.05335" lon="7.78402">
        <ele>450.681</ele>
        <time>2023-05-21T12:50:37Z</time>
      </trkpt>
      <trkpt lat="49.05328" lon="7.78418">
        <ele>451.218</ele>
        <time>2023-05-21T12:50:48Z</time>
      </trkpt>
      <trkpt lat="49.05318" lon="7.78431">
        <ele>450.433</ele>
        <time>2023-05-21T12:50:59Z</time>
      </trkpt>
      <trkpt lat="49.05309" lon="7.78441">
        <ele>448.825</ele>
        <time>2023-05-21T12:51:10Z</time>
      </trkpt>
      <trkpt lat="49.053" lon="7.78455">
        <ele>449.257</ele>
        <time>2023-05-21T12:51:22Z</time>
      </trkpt>
      <trkpt lat="49.05286" lon="7.78466">
        <ele>446.862</ele>
        <time>2023-05-21T12:51:34Z</time>
      </trkpt>
      <trkpt lat="49.05278" lon="7.78475">
        <ele>447.114</ele>
        <time>2023-05-21T12:51:44Z</time>
      </trkpt>
      <trkpt lat="49.05267" lon="7.78486">
        <ele>444.614</ele>
        <time>2023-05-21T12:51:55Z</time>
      </trkpt>
      <trkpt lat="49.05259" lon="7.78499">
        <ele>445.254</ele>
        <time>2023-05-21T12:52:06Z</time>
      </trkpt>
      <trkpt lat="49.05248" lon="7.78504">
        <ele>441.611</ele>
        <time>2023-05-21T12:52:16Z</time>
      </trkpt>
      <trkpt lat="49.05236" lon="7.78515">
        <ele>441.333</ele>
        <time>2023-05-21T12:52:27Z</time>
      </trkpt>
      <trkpt lat="49.0522" lon="7.78527">
        <ele>438.867</ele>
        <time>2023-05-21T12:52:39Z</time>
      </trkpt>
      <trkpt lat="49.0521" lon="7.78539">
        <ele>439.185</ele>
        <time>2023-05-21T12:52:49Z</time>
      </trkpt>
      <trkpt lat="49.052" lon="7.78553">
        <ele>440.504</ele>
        <time>2023-05-21T12:53:01Z</time>
      </trkpt>
      <trkpt lat="49.05193" lon="7.78565">
        <ele>441.874</ele>
        <time>2023-05-21T12:53:13Z</time>
      </trkpt>
      <trkpt lat="49.05182" lon="7.78573">
        <ele>439.859</ele>
        <time>2023-05-21T12:53:24Z</time>
      </trkpt>
      <trkpt lat="49.05171" lon="7.78584">
        <ele>439.335</ele>
        <time>2023-05-21T12:53:35Z</time>
      </trkpt>
      <trkpt lat="49.05159" lon="7.78596">
        <ele>438.51</ele>
        <time>2023-05-21T12:53:46Z</time>
      </trkpt>
      <trkpt lat="49.05149" lon="7.78607">
        <ele>437.643</ele>
        <time>2023-05-21T12:53:57Z</time>
      </trkpt>
      <trkpt lat="49.0514" lon="7.78615">
        <ele>436.076</ele>
        <time>2023-05-21T12:54:09Z</time>
      </trkpt>
      <trkpt lat="49.05125" lon="7.78618">
        <ele>431.292</ele>
        <time>2023-05-21T12:54:41Z</time>
      </trkpt>
      <trkpt lat="49.05112" lon="7.78623">
        <ele>427.279</ele>
        <time>2023-05-21T12:54:52Z</time>
      </trkpt>
      <trkpt lat="49.051" lon="7.78627">
        <ele>422.88</ele>
        <time>2023-05-21T12:55:06Z</time>
      </trkpt>
      <trkpt lat="49.05091" lon="7.78646">
        <ele>423.557</ele>
        <time>2023-05-21T12:55:16Z</time>
      </trkpt>
      <trkpt lat="49.05083" lon="7.78661">
        <ele>422.365</ele>
        <time>2023-05-21T12:55:29Z</time>
      </trkpt>
      <trkpt lat="49.05075" lon="7.78677">
        <ele>419.386</ele>
        <time>2023-05-21T12:55:41Z</time>
      </trkpt>
      <trkpt lat="49.0507" lon="7.78696">
        <ele>416.829</ele>
        <time>2023-05-21T12:55:53Z</time>
      </trkpt>
      <trkpt lat="49.05064" lon="7.7871">
        <ele>412.594</ele>
        <time>2023-05-21T12:56:04Z</time>
      </trkpt>
      <trkpt lat="49.05059" lon="7.78725">
        <ele>409.83</ele>
        <time>2023-05-21T12:56:14Z</time>
      </trkpt>
      <trkpt lat="49.05059" lon="7.7874">
        <ele>408.245</ele>
        <time>2023-05-21T12:56:25Z</time>
      </trkpt>
      <trkpt lat="49.0506" lon="7.78755">
        <ele>406.728</ele>
        <time>2023-05-21T12:56:37Z</time>
      </trkpt>
      <trkpt lat="49.05067" lon="7.78775">
        <ele>404.872</ele>
        <time>2023-05-21T12:56:49Z</time>
      </trkpt>
      <trkpt lat="49.05075" lon="7.78785">
        <ele>404.959</ele>
        <time>2023-05-21T12:56:55Z</time>
      </trkpt>
      <trkpt lat="49.05086" lon="7.78797">
        <ele>404.846</ele>
        <time>2023-05-21T12:57:06Z</time>
      </trkpt>
      <trkpt lat="49.05092" lon="7.78809">
        <ele>403.071</ele>
        <time>2023-05-21T12:57:18Z</time>
      </trkpt>
      <trkpt lat="49.05098" lon="7.78824">
        <ele>400.339</ele>
        <time>2023-05-21T12:57:34Z</time>
      </trkpt>
      <trkpt lat="49.05109" lon="7.78838">
        <ele>399.149</ele>
        <time>2023-05-21T12:57:55Z</time>
      </trkpt>
      <trkpt lat="49.05123" lon="7.78841">
        <ele>400.045</ele>
        <time>2023-05-21T12:58:08Z</time>
      </trkpt>
      <trkpt lat="49.05134" lon="7.7886">
        <ele>396.523</ele>
        <time>2023-05-21T12:58:19Z</time>
      </trkpt>
      <trkpt lat="49.05138" lon="7.78881">
        <ele>392.008</ele>
        <time>2023-05-21T12:58:31Z</time>
      </trkpt>
      <trkpt lat="49.05145" lon="7.789">
        <ele>388.126</ele>
        <time>2023-05-21T12:58:42Z</time>
      </trkpt>
      <trkpt lat="49.05153" lon="7.78916">
        <ele>384.563</ele>
        <time>2023-05-21T12:58:53Z</time>
      </trkpt>
      <trkpt lat="49.05164" lon="7.78918">
        <ele>385.31</ele>
        <time>2023-05-21T12:59:04Z</time>
      </trkpt>
      <trkpt lat="49.05173" lon="7.78927">
        <ele>384.122</ele>
        <time>2023-05-21T12:59:15Z</time>
      </trkpt>
      <trkpt lat="49.05186" lon="7.78945">
        <ele>380.171</ele>
        <time>2023-05-21T12:59:26Z</time>
      </trkpt>
      <trkpt lat="49.05198" lon="7.78959">
        <ele>377.827</ele>
        <time>2023-05-21T12:59:37Z</time>
      </trkpt>
      <trkpt lat="49.05212" lon="7.78965">
        <ele>377.83</ele>
        <time>2023-05-21T12:59:48Z</time>
      </trkpt>
      <trkpt lat="49.05216" lon="7.78977">
        <ele>375.036</ele>
        <time>2023-05-21T13:00:00Z</time>
      </trkpt>
      <trkpt lat="49.05226" lon="7.78989">
        <ele>373.026</ele>
        <time>2023-05-21T13:00:09Z</time>
      </trkpt>
      <trkpt lat="49.05231" lon="7.79005">
        <ele>369.49</ele>
        <time>2023-05-21T13:00:22Z</time>
      </trkpt>
      <trkpt lat="49.05247" lon="7.79023">
        <ele>365.915</ele>
        <time>2023-05-21T13:00:38Z</time>
      </trkpt>
      <trkpt lat="49.05258" lon="7.79022">
        <ele>367.053</ele>
        <time>2023-05-21T13:00:43Z</time>
      </trkpt>
      <trkpt lat="49.05269" lon="7.79028">
        <ele>366.373</ele>
        <time>2023-05-21T13:00:54Z</time>
      </trkpt>
      <trkpt lat="49.05274" lon="7.79046">
        <ele>362.886</ele>
        <time>2023-05-21T13:01:05Z</time>
      </trkpt>
      <trkpt lat="49.05286" lon="7.79058">
        <ele>360.524</ele>
        <time>2023-05-21T13:01:20Z</time>
      </trkpt>
      <trkpt lat="49.05296" lon="7.79066">
        <ele>358.774</ele>
        <time>2023-05-21T13:01:32Z</time>
      </trkpt>
      <trkpt lat="49.05302" lon="7.79079">
        <ele>355.845</ele>
        <time>2023-05-21T13:01:52Z</time>
      </trkpt>
      <trkpt lat="49.05303" lon="7.79097">
        <ele>353.559</ele>
        <time>2023-05-21T13:02:30Z</time>
      </trkpt>
      <trkpt lat="49.05293" lon="7.79106">
        <ele>352.596</ele>
        <time>2023-05-21T13:03:26Z</time>
      </trkpt>
      <trkpt lat="49.05277" lon="7.79104">
        <ele>352.754</ele>
        <time>2023-05-21T13:03:37Z</time>
      </trkpt>
      <trkpt lat="49.05264" lon="7.79101">
        <ele>352.836</ele>
        <time>2023-05-21T13:03:49Z</time>
      </trkpt>
      <trkpt lat="49.05252" lon="7.79085">
        <ele>354.727</ele>
        <time>2023-05-21T13:04:00Z</time>
      </trkpt>
      <trkpt lat="49.0524" lon="7.79076">
        <ele>355.457</ele>
        <time>2023-05-21T13:04:13Z</time>
      </trkpt>
      <trkpt lat="49.05226" lon="7.79063">
        <ele>356.261</ele>
        <time>2023-05-21T13:04:23Z</time>
      </trkpt>
      <trkpt lat="49.05216" lon="7.79055">
        <ele>356.687</ele>
        <time>2023-05-21T13:04:34Z</time>
      </trkpt>
      <trkpt lat="49.05206" lon="7.79053">
        <ele>356.319</ele>
        <time>2023-05-21T13:04:45Z</time>
      </trkpt>
      <trkpt lat="49.05196" lon="7.79047">
        <ele>356.586</ele>
        <time>2023-05-21T13:04:57Z</time>
      </trkpt>
      <trkpt lat="49.05186" lon="7.7904">
        <ele>357.112</ele>
        <time>2023-05-21T13:05:09Z</time>
      </trkpt>
      <trkpt lat="49.05173" lon="7.79033">
        <ele>357.457</ele>
        <time>2023-05-21T13:05:21Z</time>
      </trkpt>
      <trkpt lat="49.05155" lon="7.79033">
        <ele>355.43</ele>
        <time>2023-05-21T13:05:40Z</time>
      </trkpt>
      <trkpt lat="49.05147" lon="7.79022">
        <ele>357.194</ele>
        <time>2023-05-21T13:05:54Z</time>
      </trkpt>
      <trkpt lat="49.05136" lon="7.79006">
        <ele>360.414</ele>
        <time>2023-05-21T13:06:04Z</time>
      </trkpt>
      <trkpt lat="49.05127" lon="7.78999">
        <ele>361.821</ele>
        <time>2023-05-21T13:06:10Z</time>
      </trkpt>
      <trkpt lat="49.05113" lon="7.78995">
        <ele>361.93</ele>
        <time>2023-05-21T13:06:22Z</time>
      </trkpt>
      <trkpt lat="49.05102" lon="7.78991">
        <ele>362.211</ele>
        <time>2023-05-21T13:06:28Z</time>
      </trkpt>
      <trkpt lat="49.05084" lon="7.78996">
        <ele>360.823</ele>
        <time>2023-05-21T13:06:39Z</time>
      </trkpt>
      <trkpt lat="49.05073" lon="7.79001">
        <ele>360.009</ele>
        <time>2023-05-21T13:06:51Z</time>
      </trkpt>
      <trkpt lat="49.05059" lon="7.78999">
        <ele>361.092</ele>
        <time>2023-05-21T13:07:01Z</time>
      </trkpt>
      <trkpt lat="49.0504" lon="7.79002">
        <ele>360.569</ele>
        <time>2023-05-21T13:07:12Z</time>
      </trkpt>
      <trkpt lat="49.05022" lon="7.79001">
        <ele>360.021</ele>
        <time>2023-05-21T13:07:24Z</time>
      </trkpt>
      <trkpt lat="49.05012" lon="7.78995">
        <ele>360.363</ele>
        <time>2023-05-21T13:07:36Z</time>
      </trkpt>
      <trkpt lat="49.04999" lon="7.78988">
        <ele>360.451</ele>
        <time>2023-05-21T13:07:47Z</time>
      </trkpt>
      <trkpt lat="49.04986" lon="7.78974">
        <ele>361.609</ele>
        <time>2023-05-21T13:07:59Z</time>
      </trkpt>
      <trkpt lat="49.04974" lon="7.78968">
        <ele>361.216</ele>
        <time>2023-05-21T13:08:09Z</time>
      </trkpt>
      <trkpt lat="49.04964" lon="7.78952">
        <ele>362.595</ele>
        <time>2023-05-21T13:08:22Z</time>
      </trkpt>
      <trkpt lat="49.04958" lon="7.78939">
        <ele>364.212</ele>
        <time>2023-05-21T13:08:34Z</time>
      </trkpt>
      <trkpt lat="49.04946" lon="7.78917">
        <ele>366.069</ele>
        <time>2023-05-21T13:08:46Z</time>
      </trkpt>
      <trkpt lat="49.04939" lon="7.78902">
        <ele>366.931</ele>
        <time>2023-05-21T13:08:58Z</time>
      </trkpt>
      <trkpt lat="49.04932" lon="7.78885">
        <ele>367.831</ele>
        <time>2023-05-21T13:09:08Z</time>
      </trkpt>
      <trkpt lat="49.04928" lon="7.78867">
        <ele>368.025</ele>
        <time>2023-05-21T13:09:26Z</time>
      </trkpt>
      <trkpt lat="49.04914" lon="7.78858">
        <ele>366.839</ele>
        <time>2023-05-21T13:09:47Z</time>
      </trkpt>
      <trkpt lat="49.04903" lon="7.78845">
        <ele>366.128</ele>
        <time>2023-05-21T13:09:58Z</time>
      </trkpt>
      <trkpt lat="49.04893" lon="7.7884">
        <ele>365.192</ele>
        <time>2023-05-21T13:10:11Z</time>
      </trkpt>
      <trkpt lat="49.04883" lon="7.78833">
        <ele>364.346</ele>
        <time>2023-05-21T13:10:21Z</time>
      </trkpt>
      <trkpt lat="49.04873" lon="7.78824">
        <ele>363.62</ele>
        <time>2023-05-21T13:10:33Z</time>
      </trkpt>
      <trkpt lat="49.04862" lon="7.78814">
        <ele>362.726</ele>
        <time>2023-05-21T13:10:46Z</time>
      </trkpt>
      <trkpt lat="49.0485" lon="7.78807">
        <ele>361.661</ele>
        <time>2023-05-21T13:10:57Z</time>
      </trkpt>
      <trkpt lat="49.04838" lon="7.78794">
        <ele>360.604</ele>
        <time>2023-05-21T13:11:08Z</time>
      </trkpt>
      <trkpt lat="49.04831" lon="7.78782">
        <ele>359.64</ele>
        <time>2023-05-21T13:11:18Z</time>
      </trkpt>
      <trkpt lat="49.04819" lon="7.78779">
        <ele>358.382</ele>
        <time>2023-05-21T13:11:32Z</time>
      </trkpt>
      <trkpt lat="49.0481" lon="7.78769">
        <ele>357.822</ele>
        <time>2023-05-21T13:11:44Z</time>
      </trkpt>
      <trkpt lat="49.048" lon="7.7876">
        <ele>356.665</ele>
        <time>2023-05-21T13:11:50Z</time>
      </trkpt>
      <trkpt lat="49.04788" lon="7.78751">
        <ele>355.355</ele>
        <time>2023-05-21T13:12:01Z</time>
      </trkpt>
      <trkpt lat="49.04775" lon="7.78741">
        <ele>353.035</ele>
        <time>2023-05-21T13:12:12Z</time>
      </trkpt>
      <trkpt lat="49.04762" lon="7.78731">
        <ele>350.341</ele>
        <time>2023-05-21T13:12:24Z</time>
      </trkpt>
      <trkpt lat="49.04754" lon="7.78717">
        <ele>348.718</ele>
        <time>2023-05-21T13:12:34Z</time>
      </trkpt>
      <trkpt lat="49.04732" lon="7.78689">
        <ele>345.825</ele>
        <time>2023-05-21T13:13:10Z</time>
      </trkpt>
      <trkpt lat="49.04725" lon="7.78679">
        <ele>344.749</ele>
        <time>2023-05-21T13:13:26Z</time>
      </trkpt>
      <trkpt lat="49.04718" lon="7.78667">
        <ele>343.746</ele>
        <time>2023-05-21T13:13:37Z</time>
      </trkpt>
      <trkpt lat="49.0472" lon="7.7865">
        <ele>342.61</ele>
        <time>2023-05-21T13:13:51Z</time>
      </trkpt>
      <trkpt lat="49.04722" lon="7.78632">
        <ele>341.241</ele>
        <time>2023-05-21T13:14:02Z</time>
      </trkpt>
      <trkpt lat="49.04732" lon="7.78621">
        <ele>341.298</ele>
        <time>2023-05-21T13:14:19Z</time>
      </trkpt>
      <trkpt lat="49.04739" lon="7.7861">
        <ele>341.371</ele>
        <time>2023-05-21T13:14:32Z</time>
      </trkpt>
      <trkpt lat="49.0475" lon="7.78598">
        <ele>342.147</ele>
        <time>2023-05-21T13:14:44Z</time>
      </trkpt>
      <trkpt lat="49.04761" lon="7.78578">
        <ele>342.517</ele>
        <time>2023-05-21T13:14:55Z</time>
      </trkpt>
      <trkpt lat="49.0477" lon="7.7856">
        <ele>342.745</ele>
        <time>2023-05-21T13:15:06Z</time>
      </trkpt>
      <trkpt lat="49.0478" lon="7.78542">
        <ele>343.312</ele>
        <time>2023-05-21T13:15:16Z</time>
      </trkpt>
      <trkpt lat="49.04786" lon="7.78526">
        <ele>342.961</ele>
        <time>2023-05-21T13:15:27Z</time>
      </trkpt>
      <trkpt lat="49.04792" lon="7.78515">
        <ele>342.68</ele>
        <time>2023-05-21T13:15:33Z</time>
      </trkpt>
      <trkpt lat="49.04799" lon="7.78496">
        <ele>341.729</ele>
        <time>2023-05-21T13:15:45Z</time>
      </trkpt>
      <trkpt lat="49.04807" lon="7.78476">
        <ele>340.519</ele>
        <time>2023-05-21T13:15:56Z</time>
      </trkpt>
      <trkpt lat="49.04813" lon="7.7846">
        <ele>338.744</ele>
        <time>2023-05-21T13:16:07Z</time>
      </trkpt>
      <trkpt lat="49.04829" lon="7.7845">
        <ele>337.795</ele>
        <time>2023-05-21T13:16:48Z</time>
      </trkpt>
      <trkpt lat="49.04842" lon="7.78445">
        <ele>337.446</ele>
        <time>2023-05-21T13:16:59Z</time>
      </trkpt>
      <trkpt lat="49.04853" lon="7.78439">
        <ele>336.907</ele>
        <time>2023-05-21T13:17:05Z</time>
      </trkpt>
      <trkpt lat="49.04861" lon="7.78428">
        <ele>335.656</ele>
        <time>2023-05-21T13:17:15Z</time>
      </trkpt>
      <trkpt lat="49.04872" lon="7.78424">
        <ele>335.208</ele>
        <time>2023-05-21T13:17:27Z</time>
      </trkpt>
      <trkpt lat="49.04881" lon="7.78418">
        <ele>334.274</ele>
        <time>2023-05-21T13:17:39Z</time>
      </trkpt>
      <trkpt lat="49.04894" lon="7.78411">
        <ele>333.653</ele>
        <time>2023-05-21T13:17:50Z</time>
      </trkpt>
      <trkpt lat="49.04902" lon="7.78402">
        <ele>333.089</ele>
        <time>2023-05-21T13:17:56Z</time>
      </trkpt>
      <trkpt lat="49.04912" lon="7.78389">
        <ele>331.642</ele>
        <time>2023-05-21T13:18:07Z</time>
      </trkpt>
      <trkpt lat="49.04918" lon="7.78376">
        <ele>329.751</ele>
        <time>2023-05-21T13:18:13Z</time>
      </trkpt>
      <trkpt lat="49.04925" lon="7.78356">
        <ele>326.588</ele>
        <time>2023-05-21T13:18:24Z</time>
      </trkpt>
      <trkpt lat="49.04932" lon="7.78343">
        <ele>324.427</ele>
        <time>2023-05-21T13:18:30Z</time>
      </trkpt>
      <trkpt lat="49.04941" lon="7.7833">
        <ele>322.298</ele>
        <time>2023-05-21T13:19:05Z</time>
      </trkpt>
      <trkpt lat="49.04949" lon="7.78308">
        <ele>318.827</ele>
        <time>2023-05-21T13:19:17Z</time>
      </trkpt>
      <trkpt lat="49.04957" lon="7.78296">
        <ele>317.214</ele>
        <time>2023-05-21T13:19:23Z</time>
      </trkpt>
      <trkpt lat="49.04964" lon="7.78282">
        <ele>315.128</ele>
        <time>2023-05-21T13:19:33Z</time>
      </trkpt>
      <trkpt lat="49.04981" lon="7.78272">
        <ele>314.866</ele>
        <time>2023-05-21T13:19:45Z</time>
      </trkpt>
      <trkpt lat="49.05" lon="7.78265">
        <ele>315.607</ele>
        <time>2023-05-21T13:19:56Z</time>
      </trkpt>
      <trkpt lat="49.05014" lon="7.78258">
        <ele>315.508</ele>
        <time>2023-05-21T13:20:07Z</time>
      </trkpt>
      <trkpt lat="49.05033" lon="7.78246">
        <ele>314.946</ele>
        <time>2023-05-21T13:20:18Z</time>
      </trkpt>
      <trkpt lat="49.05036" lon="7.78223">
        <ele>312.011</ele>
        <time>2023-05-21T13:20:29Z</time>
      </trkpt>
      <trkpt lat="49.05047" lon="7.78207">
        <ele>310.866</ele>
        <time>2023-05-21T13:20:41Z</time>
      </trkpt>
      <trkpt lat="49.05051" lon="7.78187">
        <ele>309.022</ele>
        <time>2023-05-21T13:20:53Z</time>
      </trkpt>
      <trkpt lat="49.05047" lon="7.78173">
        <ele>307.557</ele>
        <time>2023-05-21T13:20:59Z</time>
      </trkpt>
      <trkpt lat="49.05039" lon="7.78158">
        <ele>306.552</ele>
        <time>2023-05-21T13:21:11Z</time>
      </trkpt>
      <trkpt lat="49.05031" lon="7.78147">
        <ele>306.057</ele>
        <time>2023-05-21T13:21:27Z</time>
      </trkpt>
      <trkpt lat="49.0502" lon="7.78135">
        <ele>305.41</ele>
        <time>2023-05-21T13:22:13Z</time>
      </trkpt>
      <trkpt lat="49.05011" lon="7.78119">
        <ele>305.614</ele>
        <time>2023-05-21T13:22:25Z</time>
      </trkpt>
      <trkpt lat="49.04999" lon="7.78109">
        <ele>305.071</ele>
        <time>2023-05-21T13:22:37Z</time>
      </trkpt>
      <trkpt lat="49.04996" lon="7.78091">
        <ele>306.635</ele>
        <time>2023-05-21T13:22:49Z</time>
      </trkpt>
      <trkpt lat="49.04989" lon="7.78073">
        <ele>307.845</ele>
        <time>2023-05-21T13:23:00Z</time>
      </trkpt>
      <trkpt lat="49.0498" lon="7.78063">
        <ele>308.048</ele>
        <time>2023-05-21T13:23:12Z</time>
      </trkpt>
      <trkpt lat="49.04974" lon="7.78043">
        <ele>309.707</ele>
        <time>2023-05-21T13:23:24Z</time>
      </trkpt>
      <trkpt lat="49.04958" lon="7.78033">
        <ele>308.558</ele>
        <time>2023-05-21T13:23:35Z</time>
      </trkpt>
      <trkpt lat="49.04943" lon="7.78028">
        <ele>306.891</ele>
        <time>2023-05-21T13:23:46Z</time>
      </trkpt>
      <trkpt lat="49.04929" lon="7.78016">
        <ele>307.324</ele>
        <time>2023-05-21T13:23:56Z</time>
      </trkpt>
      <trkpt lat="49.04919" lon="7.78008">
        <ele>307.343</ele>
        <time>2023-05-21T13:24:02Z</time>
      </trkpt>
      <trkpt lat="49.04912" lon="7.77994">
        <ele>308.601</ele>
        <time>2023-05-21T13:24:30Z</time>
      </trkpt>
      <trkpt lat="49.04905" lon="7.77982">
        <ele>309.618</ele>
        <time>2023-05-21T13:24:42Z</time>
      </trkpt>
      <trkpt lat="49.04896" lon="7.77963">
        <ele>311.113</ele>
        <time>2023-05-21T13:24:53Z</time>
      </trkpt>
      <trkpt lat="49.04891" lon="7.77948">
        <ele>312.746</ele>
        <time>2023-05-21T13:25:04Z</time>
      </trkpt>
      <trkpt lat="49.04887" lon="7.77934">
        <ele>313.862</ele>
        <time>2023-05-21T13:25:19Z</time>
      </trkpt>
      <trkpt lat="49.0488" lon="7.7792">
        <ele>314.562</ele>
        <time>2023-05-21T13:25:29Z</time>
      </trkpt>
      <trkpt lat="49.04872" lon="7.77905">
        <ele>315.593</ele>
        <time>2023-05-21T13:25:42Z</time>
      </trkpt>
      <trkpt lat="49.04865" lon="7.7789">
        <ele>315.763</ele>
        <time>2023-05-21T13:25:55Z</time>
      </trkpt>
      <trkpt lat="49.04863" lon="7.77871">
        <ele>318.435</ele>
        <time>2023-05-21T13:26:06Z</time>
      </trkpt>
      <trkpt lat="49.04853" lon="7.7786">
        <ele>319.03</ele>
        <time>2023-05-21T13:26:17Z</time>
      </trkpt>
      <trkpt lat="49.04847" lon="7.77839">
        <ele>321.568</ele>
        <time>2023-05-21T13:26:28Z</time>
      </trkpt>
      <trkpt lat="49.0484" lon="7.77817">
        <ele>323.634</ele>
        <time>2023-05-21T13:26:40Z</time>
      </trkpt>
      <trkpt lat="49.04829" lon="7.77799">
        <ele>324.849</ele>
        <time>2023-05-21T13:26:51Z</time>
      </trkpt>
      <trkpt lat="49.04828" lon="7.77776">
        <ele>329.357</ele>
        <time>2023-05-21T13:27:02Z</time>
      </trkpt>
      <trkpt lat="49.04825" lon="7.77757">
        <ele>332.639</ele>
        <time>2023-05-21T13:27:17Z</time>
      </trkpt>
      <trkpt lat="49.04817" lon="7.77735">
        <ele>334.379</ele>
        <time>2023-05-21T13:27:27Z</time>
      </trkpt>
      <trkpt lat="49.0481" lon="7.7772">
        <ele>335.313</ele>
        <time>2023-05-21T13:27:44Z</time>
      </trkpt>
      <trkpt lat="49.048" lon="7.77711">
        <ele>334.907</ele>
        <time>2023-05-21T13:28:04Z</time>
      </trkpt>
      <trkpt lat="49.04791" lon="7.77702">
        <ele>334.507</ele>
        <time>2023-05-21T13:28:20Z</time>
      </trkpt>
      <trkpt lat="49.04785" lon="7.7769">
        <ele>335.303</ele>
        <time>2023-05-21T13:28:25Z</time>
      </trkpt>
      <trkpt lat="49.04772" lon="7.77665">
        <ele>335.981</ele>
        <time>2023-05-21T13:28:36Z</time>
      </trkpt>
      <trkpt lat="49.04762" lon="7.77651">
        <ele>336.118</ele>
        <time>2023-05-21T13:28:54Z</time>
      </trkpt>
      <trkpt lat="49.04751" lon="7.77636">
        <ele>335.702</ele>
        <time>2023-05-21T13:29:18Z</time>
      </trkpt>
      <trkpt lat="49.04743" lon="7.77619">
        <ele>335.968</ele>
        <time>2023-05-21T13:29:29Z</time>
      </trkpt>
      <trkpt lat="49.04742" lon="7.77598">
        <ele>338.172</ele>
        <time>2023-05-21T13:29:40Z</time>
      </trkpt>
      <trkpt lat="49.04742" lon="7.77573">
        <ele>340.37</ele>
        <time>2023-05-21T13:29:52Z</time>
      </trkpt>
      <trkpt lat="49.04739" lon="7.77554">
        <ele>340.499</ele>
        <time>2023-05-21T13:30:04Z</time>
      </trkpt>
      <trkpt lat="49.04733" lon="7.77536">
        <ele>338.969</ele>
        <time>2023-05-21T13:30:15Z</time>
      </trkpt>
      <trkpt lat="49.04724" lon="7.77518">
        <ele>336.698</ele>
        <time>2023-05-21T13:30:26Z</time>
      </trkpt>
      <trkpt lat="49.04722" lon="7.77495">
        <ele>336.97</ele>
        <time>2023-05-21T13:30:38Z</time>
      </trkpt>
      <trkpt lat="49.04723" lon="7.7748">
        <ele>337.053</ele>
        <time>2023-05-21T13:30:49Z</time>
      </trkpt>
      <trkpt lat="49.04714" lon="7.77465">
        <ele>336.768</ele>
        <time>2023-05-21T13:31:00Z</time>
      </trkpt>
      <trkpt lat="49.04706" lon="7.77456">
        <ele>336.757</ele>
        <time>2023-05-21T13:31:17Z</time>
      </trkpt>
      <trkpt lat="49.04698" lon="7.77445">
        <ele>336.98</ele>
        <time>2023-05-21T13:31:28Z</time>
      </trkpt>
      <trkpt lat="49.04675" lon="7.77436">
        <ele>335.844</ele>
        <time>2023-05-21T13:32:14Z</time>
      </trkpt>
      <trkpt lat="49.04682" lon="7.77423">
        <ele>336.426</ele>
        <time>2023-05-21T13:32:26Z</time>
      </trkpt>
      <trkpt lat="49.04683" lon="7.77416">
        <ele>336.559</ele>
        <time>2023-05-21T13:37:43Z</time>
      </trkpt>
      <trkpt lat="49.04678" lon="7.77409">
        <ele>335.931</ele>
        <time>2023-05-21T13:40:43Z</time>
      </trkpt>
      <trkpt lat="49.04678" lon="7.7741">
        <ele>335.949</ele>
        <time>2023-05-21T13:59:23Z</time>
      </trkpt>
      <trkpt lat="49.04674" lon="7.7741">
        <ele>335.899</ele>
        <time>2023-05-21T14:04:06Z</time>
      </trkpt>
      <trkpt lat="49.04673" lon="7.77417">
        <ele>336.229</ele>
        <time>2023-05-21T14:11:48Z</time>
      </trkpt>
      <trkpt lat="49.04666" lon="7.77421">
        <ele>335.811</ele>
        <time>2023-05-21T14:12:15Z</time>
      </trkpt>
      <trkpt lat="49.04657" lon="7.77414">
        <ele>335.607</ele>
        <time>2023-05-21T14:12:26Z</time>
      </trkpt>
      <trkpt lat="49.04647" lon="7.77405">
        <ele>335.465</ele>
        <time>2023-05-21T14:12:43Z</time>
      </trkpt>
      <trkpt lat="49.04637" lon="7.77396">
        <ele>335.583</ele>
        <time>2023-05-21T14:12:54Z</time>
      </trkpt>
      <trkpt lat="49.04627" lon="7.77388">
        <ele>335.131</ele>
        <time>2023-05-21T14:13:05Z</time>
      </trkpt>
      <trkpt lat="49.04616" lon="7.77384">
        <ele>334.576</ele>
        <time>2023-05-21T14:13:16Z</time>
      </trkpt>
      <trkpt lat="49.04606" lon="7.77371">
        <ele>335.07</ele>
        <time>2023-05-21T14:13:27Z</time>
      </trkpt>
      <trkpt lat="49.04595" lon="7.77361">
        <ele>335.418</ele>
        <time>2023-05-21T14:13:39Z</time>
      </trkpt>
      <trkpt lat="49.04582" lon="7.77352">
        <ele>335.318</ele>
        <time>2023-05-21T14:13:50Z</time>
      </trkpt>
      <trkpt lat="49.04566" lon="7.77353">
        <ele>335.237</ele>
        <time>2023-05-21T14:14:01Z</time>
      </trkpt>
      <trkpt lat="49.04555" lon="7.77346">
        <ele>336.236</ele>
        <time>2023-05-21T14:14:12Z</time>
      </trkpt>
      <trkpt lat="49.0455" lon="7.77326">
        <ele>338.877</ele>
        <time>2023-05-21T14:14:24Z</time>
      </trkpt>
      <trkpt lat="49.04543" lon="7.77311">
        <ele>340.825</ele>
        <time>2023-05-21T14:14:36Z</time>
      </trkpt>
      <trkpt lat="49.04534" lon="7.77294">
        <ele>343.733</ele>
        <time>2023-05-21T14:14:48Z</time>
      </trkpt>
      <trkpt lat="49.04532" lon="7.77263">
        <ele>348.921</ele>
        <time>2023-05-21T14:14:59Z</time>
      </trkpt>
      <trkpt lat="49.04532" lon="7.7724">
        <ele>350.956</ele>
        <time>2023-05-21T14:15:10Z</time>
      </trkpt>
      <trkpt lat="49.04532" lon="7.77222">
        <ele>350.87</ele>
        <time>2023-05-21T14:15:21Z</time>
      </trkpt>
      <trkpt lat="49.04526" lon="7.77204">
        <ele>352.137</ele>
        <time>2023-05-21T14:15:34Z</time>
      </trkpt>
      <trkpt lat="49.04518" lon="7.77192">
        <ele>354.017</ele>
        <time>2023-05-21T14:15:45Z</time>
      </trkpt>
      <trkpt lat="49.04513" lon="7.77171">
        <ele>352.752</ele>
        <time>2023-05-21T14:16:04Z</time>
      </trkpt>
      <trkpt lat="49.0451" lon="7.77156">
        <ele>351.581</ele>
        <time>2023-05-21T14:16:10Z</time>
      </trkpt>
      <trkpt lat="49.0451" lon="7.77205">
        <ele>358.273</ele>
        <time>2023-05-21T14:20:06Z</time>
      </trkpt>
      <trkpt lat="49.04511" lon="7.7722">
        <ele>359.782</ele>
        <time>2023-05-21T14:20:12Z</time>
      </trkpt>
      <trkpt lat="49.04501" lon="7.7723">
        <ele>363.54</ele>
        <time>2023-05-21T14:20:23Z</time>
      </trkpt>
      <trkpt lat="49.04493" lon="7.77216">
        <ele>363.099</ele>
        <time>2023-05-21T14:20:34Z</time>
      </trkpt>
      <trkpt lat="49.04481" lon="7.77205">
        <ele>361.791</ele>
        <time>2023-05-21T14:23:09Z</time>
      </trkpt>
      <trkpt lat="49.04474" lon="7.77201">
        <ele>362.108</ele>
        <time>2023-05-21T14:25:19Z</time>
      </trkpt>
      <trkpt lat="49.04472" lon="7.7719">
        <ele>362.824</ele>
        <time>2023-05-21T14:25:34Z</time>
      </trkpt>
      <trkpt lat="49.0446" lon="7.77182">
        <ele>357.077</ele>
        <time>2023-05-21T14:25:49Z</time>
      </trkpt>
      <trkpt lat="49.04479" lon="7.77218">
        <ele>360.71</ele>
        <time>2023-05-21T14:29:05Z</time>
      </trkpt>
      <trkpt lat="49.04492" lon="7.77239">
        <ele>360.501</ele>
        <time>2023-05-21T14:35:17Z</time>
      </trkpt>
      <trkpt lat="49.04491" lon="7.77232">
        <ele>361.381</ele>
        <time>2023-05-21T14:35:41Z</time>
      </trkpt>
      <trkpt lat="49.04483" lon="7.77222">
        <ele>361.418</ele>
        <time>2023-05-21T14:35:54Z</time>
      </trkpt>
      <trkpt lat="49.04481" lon="7.77195">
        <ele>362.356</ele>
        <time>2023-05-21T14:35:59Z</time>
      </trkpt>
      <trkpt lat="49.04489" lon="7.77208">
        <ele>362.225</ele>
        <time>2023-05-21T14:39:39Z</time>
      </trkpt>
      <trkpt lat="49.04487" lon="7.77195">
        <ele>361.965</ele>
        <time>2023-05-21T14:41:12Z</time>
      </trkpt>
      <trkpt lat="49.04477" lon="7.77182">
        <ele>362.586</ele>
        <time>2023-05-21T14:41:27Z</time>
      </trkpt>
      <trkpt lat="49.04471" lon="7.77168">
        <ele>363.116</ele>
        <time>2023-05-21T14:41:42Z</time>
      </trkpt>
      <trkpt lat="49.0447" lon="7.77158">
        <ele>361.747</ele>
        <time>2023-05-21T14:42:29Z</time>
      </trkpt>
      <trkpt lat="49.04482" lon="7.77169">
        <ele>361.289</ele>
        <time>2023-05-21T14:42:42Z</time>
      </trkpt>
      <trkpt lat="49.04493" lon="7.77179">
        <ele>359.629</ele>
        <time>2023-05-21T14:42:53Z</time>
      </trkpt>
      <trkpt lat="49.04495" lon="7.77202">
        <ele>362.048</ele>
        <time>2023-05-21T14:43:19Z</time>
      </trkpt>
      <trkpt lat="49.04505" lon="7.77221">
        <ele>362.608</ele>
        <time>2023-05-21T14:43:48Z</time>
      </trkpt>
      <trkpt lat="49.04506" lon="7.77205">
        <ele>360.007</ele>
        <time>2023-05-21T14:44:42Z</time>
      </trkpt>
      <trkpt lat="49.04502" lon="7.77187">
        <ele>359.031</ele>
        <time>2023-05-21T14:44:48Z</time>
      </trkpt>
      <trkpt lat="49.04498" lon="7.77162">
        <ele>355.562</ele>
        <time>2023-05-21T14:45:00Z</time>
      </trkpt>
      <trkpt lat="49.04507" lon="7.77148">
        <ele>351.038</ele>
        <time>2023-05-21T14:45:17Z</time>
      </trkpt>
      <trkpt lat="49.04517" lon="7.77147">
        <ele>348.499</ele>
        <time>2023-05-21T14:45:29Z</time>
      </trkpt>
      <trkpt lat="49.04523" lon="7.77164">
        <ele>348.978</ele>
        <time>2023-05-21T14:45:41Z</time>
      </trkpt>
      <trkpt lat="49.04532" lon="7.77173">
        <ele>347.26</ele>
        <time>2023-05-21T14:47:14Z</time>
      </trkpt>
      <trkpt lat="49.04536" lon="7.77156">
        <ele>343.969</ele>
        <time>2023-05-21T14:48:55Z</time>
      </trkpt>
      <trkpt lat="49.04525" lon="7.77142">
        <ele>345.986</ele>
        <time>2023-05-21T14:49:16Z</time>
      </trkpt>
      <trkpt lat="49.0452" lon="7.77129">
        <ele>345.137</ele>
        <time>2023-05-21T14:49:29Z</time>
      </trkpt>
      <trkpt lat="49.04513" lon="7.77118">
        <ele>344.796</ele>
        <time>2023-05-21T14:49:39Z</time>
      </trkpt>
      <trkpt lat="49.04504" lon="7.77106">
        <ele>344.971</ele>
        <time>2023-05-21T14:49:50Z</time>
      </trkpt>
      <trkpt lat="49.04492" lon="7.77108">
        <ele>347.484</ele>
        <time>2023-05-21T14:50:01Z</time>
      </trkpt>
      <trkpt lat="49.04473" lon="7.771">
        <ele>348.796</ele>
        <time>2023-05-21T14:50:28Z</time>
      </trkpt>
      <trkpt lat="49.04463" lon="7.77098">
        <ele>347.177</ele>
        <time>2023-05-21T14:50:34Z</time>
      </trkpt>
      <trkpt lat="49.04452" lon="7.77101">
        <ele>345.91</ele>
        <time>2023-05-21T14:50:52Z</time>
      </trkpt>
      <trkpt lat="49.04443" lon="7.77117">
        <ele>345.912</ele>
        <time>2023-05-21T14:51:31Z</time>
      </trkpt>
      <trkpt lat="49.04434" lon="7.77138">
        <ele>342.909</ele>
        <time>2023-05-21T14:51:43Z</time>
      </trkpt>
      <trkpt lat="49.04429" lon="7.77157">
        <ele>341.3</ele>
        <time>2023-05-21T14:51:55Z</time>
      </trkpt>
      <trkpt lat="49.04428" lon="7.77179">
        <ele>340.82</ele>
        <time>2023-05-21T14:52:15Z</time>
      </trkpt>
      <trkpt lat="49.04431" lon="7.77198">
        <ele>341.417</ele>
        <time>2023-05-21T14:52:28Z</time>
      </trkpt>
      <trkpt lat="49.04432" lon="7.77214">
        <ele>339.677</ele>
        <time>2023-05-21T14:52:40Z</time>
      </trkpt>
      <trkpt lat="49.04431" lon="7.77232">
        <ele>337.223</ele>
        <time>2023-05-21T14:52:52Z</time>
      </trkpt>
      <trkpt lat="49.04435" lon="7.77244">
        <ele>336.82</ele>
        <time>2023-05-21T14:53:05Z</time>
      </trkpt>
      <trkpt lat="49.04424" lon="7.77258">
        <ele>332.567</ele>
        <time>2023-05-21T14:53:29Z</time>
      </trkpt>
      <trkpt lat="49.04415" lon="7.7726">
        <ele>329.936</ele>
        <time>2023-05-21T14:53:45Z</time>
      </trkpt>
      <trkpt lat="49.04405" lon="7.77262">
        <ele>327.376</ele>
        <time>2023-05-21T14:54:21Z</time>
      </trkpt>
      <trkpt lat="49.04414" lon="7.77271">
        <ele>328.843</ele>
        <time>2023-05-21T14:54:33Z</time>
      </trkpt>
      <trkpt lat="49.04423" lon="7.7728">
        <ele>330.421</ele>
        <time>2023-05-21T14:54:58Z</time>
      </trkpt>
      <trkpt lat="49.04431" lon="7.77289">
        <ele>331.403</ele>
        <time>2023-05-21T14:55:10Z</time>
      </trkpt>
      <trkpt lat="49.04435" lon="7.77306">
        <ele>330.279</ele>
        <time>2023-05-21T14:56:32Z</time>
      </trkpt>
      <trkpt lat="49.04421" lon="7.77306">
        <ele>327.782</ele>
        <time>2023-05-21T14:57:20Z</time>
      </trkpt>
      <trkpt lat="49.04407" lon="7.77304">
        <ele>324.941</ele>
        <time>2023-05-21T14:58:00Z</time>
      </trkpt>
      <trkpt lat="49.04395" lon="7.77298">
        <ele>322.731</ele>
        <time>2023-05-21T14:58:20Z</time>
      </trkpt>
      <trkpt lat="49.04386" lon="7.77297">
        <ele>320.721</ele>
        <time>2023-05-21T14:58:33Z</time>
      </trkpt>
      <trkpt lat="49.04374" lon="7.77298">
        <ele>318.524</ele>
        <time>2023-05-21T14:58:45Z</time>
      </trkpt>
      <trkpt lat="49.04364" lon="7.77294">
        <ele>317.024</ele>
        <time>2023-05-21T14:58:59Z</time>
      </trkpt>
      <trkpt lat="49.04354" lon="7.77294">
        <ele>315.315</ele>
        <time>2023-05-21T14:59:14Z</time>
      </trkpt>
      <trkpt lat="49.04344" lon="7.7729">
        <ele>313.797</ele>
        <time>2023-05-21T14:59:25Z</time>
      </trkpt>
      <trkpt lat="49.04333" lon="7.77286">
        <ele>311.99</ele>
        <time>2023-05-21T14:59:36Z</time>
      </trkpt>
      <trkpt lat="49.04323" lon="7.77276">
        <ele>311.228</ele>
        <time>2023-05-21T14:59:47Z</time>
      </trkpt>
      <trkpt lat="49.04314" lon="7.77265">
        <ele>310.267</ele>
        <time>2023-05-21T14:59:59Z</time>
      </trkpt>
      <trkpt lat="49.04305" lon="7.77256">
        <ele>309.22</ele>
        <time>2023-05-21T15:00:11Z</time>
      </trkpt>
      <trkpt lat="49.04299" lon="7.77243">
        <ele>308.012</ele>
        <time>2023-05-21T15:00:28Z</time>
      </trkpt>
      <trkpt lat="49.04293" lon="7.77229">
        <ele>306.55</ele>
        <time>2023-05-21T15:00:38Z</time>
      </trkpt>
      <trkpt lat="49.04281" lon="7.77216">
        <ele>304.783</ele>
        <time>2023-05-21T15:00:56Z</time>
      </trkpt>
      <trkpt lat="49.04268" lon="7.77205">
        <ele>303.526</ele>
        <time>2023-05-21T15:01:08Z</time>
      </trkpt>
      <trkpt lat="49.04255" lon="7.77195">
        <ele>302.227</ele>
        <time>2023-05-21T15:01:20Z</time>
      </trkpt>
      <trkpt lat="49.04245" lon="7.77175">
        <ele>300.129</ele>
        <time>2023-05-21T15:01:32Z</time>
      </trkpt>
      <trkpt lat="49.04236" lon="7.77166">
        <ele>299.441</ele>
        <time>2023-05-21T15:01:44Z</time>
      </trkpt>
      <trkpt lat="49.04227" lon="7.77153">
        <ele>297.851</ele>
        <time>2023-05-21T15:02:03Z</time>
      </trkpt>
      <trkpt lat="49.04216" lon="7.77139">
        <ele>296.22</ele>
        <time>2023-05-21T15:02:14Z</time>
      </trkpt>
      <trkpt lat="49.04204" lon="7.77129">
        <ele>294.433</ele>
        <time>2023-05-21T15:02:26Z</time>
      </trkpt>
      <trkpt lat="49.04193" lon="7.77116">
        <ele>292.187</ele>
        <time>2023-05-21T15:02:38Z</time>
      </trkpt>
      <trkpt lat="49.04185" lon="7.77102">
        <ele>290.227</ele>
        <time>2023-05-21T15:02:48Z</time>
      </trkpt>
      <trkpt lat="49.04177" lon="7.77092">
        <ele>289.053</ele>
        <time>2023-05-21T15:03:01Z</time>
      </trkpt>
      <trkpt lat="49.04163" lon="7.77082">
        <ele>288.516</ele>
        <time>2023-05-21T15:03:20Z</time>
      </trkpt>
      <trkpt lat="49.04152" lon="7.77067">
        <ele>287.736</ele>
        <time>2023-05-21T15:03:31Z</time>
      </trkpt>
      <trkpt lat="49.04139" lon="7.77055">
        <ele>286.843</ele>
        <time>2023-05-21T15:03:43Z</time>
      </trkpt>
      <trkpt lat="49.04136" lon="7.77036">
        <ele>283.356</ele>
        <time>2023-05-21T15:03:56Z</time>
      </trkpt>
      <trkpt lat="49.0413" lon="7.7702">
        <ele>281.262</ele>
        <time>2023-05-21T15:04:07Z</time>
      </trkpt>
      <trkpt lat="49.04122" lon="7.77006">
        <ele>279.962</ele>
        <time>2023-05-21T15:04:18Z</time>
      </trkpt>
      <trkpt lat="49.04112" lon="7.76994">
        <ele>278.798</ele>
        <time>2023-05-21T15:04:30Z</time>
      </trkpt>
      <trkpt lat="49.04104" lon="7.76973">
        <ele>276.565</ele>
        <time>2023-05-21T15:04:41Z</time>
      </trkpt>
      <trkpt lat="49.04094" lon="7.76959">
        <ele>275.446</ele>
        <time>2023-05-21T15:04:52Z</time>
      </trkpt>
      <trkpt lat="49.04088" lon="7.76945">
        <ele>273.308</ele>
        <time>2023-05-21T15:05:03Z</time>
      </trkpt>
      <trkpt lat="49.04083" lon="7.7693">
        <ele>270.991</ele>
        <time>2023-05-21T15:05:21Z</time>
      </trkpt>
      <trkpt lat="49.04073" lon="7.76919">
        <ele>270.244</ele>
        <time>2023-05-21T15:05:33Z</time>
      </trkpt>
      <trkpt lat="49.04063" lon="7.7691">
        <ele>270.038</ele>
        <time>2023-05-21T15:05:45Z</time>
      </trkpt>
      <trkpt lat="49.04053" lon="7.76897">
        <ele>268.135</ele>
        <time>2023-05-21T15:06:03Z</time>
      </trkpt>
      <trkpt lat="49.04047" lon="7.76877">
        <ele>264.519</ele>
        <time>2023-05-21T15:06:28Z</time>
      </trkpt>
      <trkpt lat="49.04039" lon="7.76869">
        <ele>263.666</ele>
        <time>2023-05-21T15:06:43Z</time>
      </trkpt>
      <trkpt lat="49.0403" lon="7.76861">
        <ele>262.824</ele>
        <time>2023-05-21T15:06:58Z</time>
      </trkpt>
      <trkpt lat="49.04024" lon="7.76848">
        <ele>260.363</ele>
        <time>2023-05-21T15:07:11Z</time>
      </trkpt>
      <trkpt lat="49.04016" lon="7.76835">
        <ele>257.515</ele>
        <time>2023-05-21T15:07:22Z</time>
      </trkpt>
      <trkpt lat="49.04005" lon="7.76824">
        <ele>254.872</ele>
        <time>2023-05-21T15:07:47Z</time>
      </trkpt>
      <trkpt lat="49.03992" lon="7.76822">
        <ele>252.674</ele>
        <time>2023-05-21T15:08:01Z</time>
      </trkpt>
      <trkpt lat="49.0398" lon="7.76827">
        <ele>250.824</ele>
        <time>2023-05-21T15:08:12Z</time>
      </trkpt>
      <trkpt lat="49.0397" lon="7.76833">
        <ele>249.296</ele>
        <time>2023-05-21T15:08:28Z</time>
      </trkpt>
      <trkpt lat="49.03962" lon="7.76842">
        <ele>248.646</ele>
        <time>2023-05-21T15:08:40Z</time>
      </trkpt>
      <trkpt lat="49.03952" lon="7.76849">
        <ele>247.108</ele>
        <time>2023-05-21T15:08:52Z</time>
      </trkpt>
      <trkpt lat="49.0394" lon="7.76856">
        <ele>245.062</ele>
        <time>2023-05-21T15:09:03Z</time>
      </trkpt>
      <trkpt lat="49.03929" lon="7.76863">
        <ele>242.643</ele>
        <time>2023-05-21T15:09:15Z</time>
      </trkpt>
      <trkpt lat="49.03917" lon="7.76867">
        <ele>239.592</ele>
        <time>2023-05-21T15:09:21Z</time>
      </trkpt>
      <trkpt lat="49.03902" lon="7.76874">
        <ele>237.722</ele>
        <time>2023-05-21T15:09:41Z</time>
      </trkpt>
      <trkpt lat="49.03888" lon="7.76879">
        <ele>235.419</ele>
        <time>2023-05-21T15:10:05Z</time>
      </trkpt>
      <trkpt lat="49.03873" lon="7.76877">
        <ele>232.643</ele>
        <time>2023-05-21T15:10:27Z</time>
      </trkpt>
      <trkpt lat="49.03868" lon="7.76859">
        <ele>231.183</ele>
        <time>2023-05-21T15:10:39Z</time>
      </trkpt>
      <trkpt lat="49.03872" lon="7.76842">
        <ele>230.254</ele>
        <time>2023-05-21T15:10:51Z</time>
      </trkpt>
      <trkpt lat="49.03876" lon="7.76827">
        <ele>229.637</ele>
        <time>2023-05-21T15:11:02Z</time>
      </trkpt>
      <trkpt lat="49.03878" lon="7.76842">
        <ele>231.295</ele>
        <time>2023-05-21T15:11:53Z</time>
      </trkpt>
      <trkpt lat="49.03873" lon="7.76856">
        <ele>231.693</ele>
        <time>2023-05-21T15:12:04Z</time>
      </trkpt>
      <trkpt lat="49.03864" lon="7.76866">
        <ele>230.707</ele>
        <time>2023-05-21T15:13:32Z</time>
      </trkpt>
      <trkpt lat="49.03855" lon="7.76871">
        <ele>229.081</ele>
        <time>2023-05-21T15:13:51Z</time>
      </trkpt>
      <trkpt lat="49.03844" lon="7.76872">
        <ele>226.557</ele>
        <time>2023-05-21T15:14:03Z</time>
      </trkpt>
      <trkpt lat="49.03834" lon="7.7687">
        <ele>224.093</ele>
        <time>2023-05-21T15:14:13Z</time>
      </trkpt>
      <trkpt lat="49.03822" lon="7.76867">
        <ele>220.791</ele>
        <time>2023-05-21T15:14:26Z</time>
      </trkpt>
      <trkpt lat="49.03815" lon="7.76855">
        <ele>218.867</ele>
        <time>2023-05-21T15:14:38Z</time>
      </trkpt>
      <trkpt lat="49.03805" lon="7.76845">
        <ele>216.322</ele>
        <time>2023-05-21T15:14:50Z</time>
      </trkpt>
      <trkpt lat="49.03799" lon="7.7683">
        <ele>214.937</ele>
        <time>2023-05-21T15:15:28Z</time>
      </trkpt>
      <trkpt lat="49.03789" lon="7.76814">
        <ele>211.971</ele>
        <time>2023-05-21T15:15:50Z</time>
      </trkpt>
      <trkpt lat="49.03777" lon="7.76802">
        <ele>208.957</ele>
        <time>2023-05-21T15:16:09Z</time>
      </trkpt>
      <trkpt lat="49.03769" lon="7.76788">
        <ele>208.28</ele>
        <time>2023-05-21T15:16:20Z</time>
      </trkpt>
      <trkpt lat="49.03763" lon="7.76776">
        <ele>207.333</ele>
        <time>2023-05-21T15:16:31Z</time>
      </trkpt>
      <trkpt lat="49.03752" lon="7.76774">
        <ele>206.22</ele>
        <time>2023-05-21T15:16:49Z</time>
      </trkpt>
      <trkpt lat="49.03743" lon="7.76791">
        <ele>207.042</ele>
        <time>2023-05-21T15:18:03Z</time>
      </trkpt>
      <trkpt lat="49.03738" lon="7.76803">
        <ele>208.241</ele>
        <time>2023-05-21T15:18:18Z</time>
      </trkpt>
      <trkpt lat="49.03734" lon="7.7682">
        <ele>210.731</ele>
        <time>2023-05-21T15:18:46Z</time>
      </trkpt>
      <trkpt lat="49.03736" lon="7.76836">
        <ele>212.854</ele>
        <time>2023-05-21T15:18:58Z</time>
      </trkpt>
      <trkpt lat="49.0374" lon="7.76851">
        <ele>214.463</ele>
        <time>2023-05-21T15:19:13Z</time>
      </trkpt>
      <trkpt lat="49.03739" lon="7.76868">
        <ele>216.633</ele>
        <time>2023-05-21T15:19:24Z</time>
      </trkpt>
      <trkpt lat="49.0374" lon="7.76883">
        <ele>217.908</ele>
        <time>2023-05-21T15:19:39Z</time>
      </trkpt>
      <trkpt lat="49.03733" lon="7.76895">
        <ele>219.796</ele>
        <time>2023-05-21T15:19:51Z</time>
      </trkpt>
      <trkpt lat="49.03736" lon="7.7691">
        <ele>220.128</ele>
        <time>2023-05-21T15:20:03Z</time>
      </trkpt>
      <trkpt lat="49.03735" lon="7.76932">
        <ele>221.063</ele>
        <time>2023-05-21T15:20:21Z</time>
      </trkpt>
      <trkpt lat="49.03734" lon="7.76953">
        <ele>221.924</ele>
        <time>2023-05-21T15:20:38Z</time>
      </trkpt>
      <trkpt lat="49.03732" lon="7.76969">
        <ele>223.05</ele>
        <time>2023-05-21T15:20:50Z</time>
      </trkpt>
      <trkpt lat="49.03737" lon="7.76999">
        <ele>224.12</ele>
        <time>2023-05-21T15:21:02Z</time>
      </trkpt>
      <trkpt lat="49.03742" lon="7.77019">
        <ele>224.258</ele>
        <time>2023-05-21T15:21:12Z</time>
      </trkpt>
      <trkpt lat="49.03744" lon="7.77037">
        <ele>225.662</ele>
        <time>2023-05-21T15:21:24Z</time>
      </trkpt>
      <trkpt lat="49.03747" lon="7.77052">
        <ele>226.365</ele>
        <time>2023-05-21T15:21:35Z</time>
      </trkpt>
      <trkpt lat="49.03738" lon="7.77057">
        <ele>229.502</ele>
        <time>2023-05-21T15:21:46Z</time>
      </trkpt>
      <trkpt lat="49.03726" lon="7.77049">
        <ele>232.143</ele>
        <time>2023-05-21T15:21:52Z</time>
      </trkpt>
      <trkpt lat="49.03716" lon="7.77036">
        <ele>232.373</ele>
        <time>2023-05-21T15:22:03Z</time>
      </trkpt>
      <trkpt lat="49.03706" lon="7.77017">
        <ele>232.473</ele>
        <time>2023-05-21T15:22:23Z</time>
      </trkpt>
      <trkpt lat="49.03698" lon="7.77004">
        <ele>232.703</ele>
        <time>2023-05-21T15:22:34Z</time>
      </trkpt>
      <trkpt lat="49.03688" lon="7.76984">
        <ele>231.839</ele>
        <time>2023-05-21T15:22:46Z</time>
      </trkpt>
      <trkpt lat="49.03677" lon="7.76968">
        <ele>230.716</ele>
        <time>2023-05-21T15:22:57Z</time>
      </trkpt>
      <trkpt lat="49.03668" lon="7.76955">
        <ele>229.397</ele>
        <time>2023-05-21T15:23:17Z</time>
      </trkpt>
      <trkpt lat="49.03659" lon="7.76951">
        <ele>229.098</ele>
        <time>2023-05-21T15:23:28Z</time>
      </trkpt>
      <trkpt lat="49.03649" lon="7.76946">
        <ele>228.36</ele>
        <time>2023-05-21T15:23:41Z</time>
      </trkpt>
      <trkpt lat="49.03636" lon="7.7695">
        <ele>229.18</ele>
        <time>2023-05-21T15:23:53Z</time>
      </trkpt>
      <trkpt lat="49.03623" lon="7.7695">
        <ele>229.372</ele>
        <time>2023-05-21T15:24:07Z</time>
      </trkpt>
      <trkpt lat="49.03604" lon="7.7695">
        <ele>229.397</ele>
        <time>2023-05-21T15:24:19Z</time>
      </trkpt>
      <trkpt lat="49.0359" lon="7.76947">
        <ele>228.533</ele>
        <time>2023-05-21T15:24:29Z</time>
      </trkpt>
      <trkpt lat="49.03577" lon="7.76942">
        <ele>226.798</ele>
        <time>2023-05-21T15:25:08Z</time>
      </trkpt>
      <trkpt lat="49.03569" lon="7.7695">
        <ele>228.564</ele>
        <time>2023-05-21T15:25:25Z</time>
      </trkpt>
      <trkpt lat="49.03554" lon="7.76949">
        <ele>227.287</ele>
        <time>2023-05-21T15:25:37Z</time>
      </trkpt>
      <trkpt lat="49.03541" lon="7.76949">
        <ele>226.423</ele>
        <time>2023-05-21T15:25:48Z</time>
      </trkpt>
      <trkpt lat="49.03532" lon="7.76953">
        <ele>226.695</ele>
        <time>2023-05-21T15:26:00Z</time>
      </trkpt>
      <trkpt lat="49.03521" lon="7.76958">
        <ele>227.423</ele>
        <time>2023-05-21T15:26:12Z</time>
      </trkpt>
      <trkpt lat="49.03511" lon="7.76956">
        <ele>226.364</ele>
        <time>2023-05-21T15:26:29Z</time>
      </trkpt>
      <trkpt lat="49.03499" lon="7.76957">
        <ele>226.005</ele>
        <time>2023-05-21T15:26:41Z</time>
      </trkpt>
      <trkpt lat="49.03487" lon="7.76963">
        <ele>226.638</ele>
        <time>2023-05-21T15:26:52Z</time>
      </trkpt>
      <trkpt lat="49.03472" lon="7.76961">
        <ele>224.843</ele>
        <time>2023-05-21T15:27:04Z</time>
      </trkpt>
      <trkpt lat="49.03459" lon="7.76959">
        <ele>222.752</ele>
        <time>2023-05-21T15:27:15Z</time>
      </trkpt>
      <trkpt lat="49.03449" lon="7.76954">
        <ele>220.179</ele>
        <time>2023-05-21T15:27:28Z</time>
      </trkpt>
      <trkpt lat="49.03436" lon="7.76956">
        <ele>218.123</ele>
        <time>2023-05-21T15:27:40Z</time>
      </trkpt>
      <trkpt lat="49.03423" lon="7.76955">
        <ele>214.853</ele>
        <time>2023-05-21T15:27:51Z</time>
      </trkpt>
      <trkpt lat="49.03411" lon="7.76957">
        <ele>213.41</ele>
        <time>2023-05-21T15:28:03Z</time>
      </trkpt>
      <trkpt lat="49.03398" lon="7.76959">
        <ele>212.777</ele>
        <time>2023-05-21T15:28:15Z</time>
      </trkpt>
      <trkpt lat="49.03389" lon="7.76963">
        <ele>212.614</ele>
        <time>2023-05-21T15:28:34Z</time>
      </trkpt>
      <trkpt lat="49.03381" lon="7.76969">
        <ele>212.882</ele>
        <time>2023-05-21T15:28:49Z</time>
      </trkpt>
      <trkpt lat="49.03371" lon="7.76969">
        <ele>212.19</ele>
        <time>2023-05-21T15:29:01Z</time>
      </trkpt>
      <trkpt lat="49.03362" lon="7.76962">
        <ele>210.544</ele>
        <time>2023-05-21T15:31:53Z</time>
      </trkpt>
    </trkseg>
  </trk>
</gpx>